<?xml version="1.0" encoding="UTF-8" standalone="no" ?>
<gpx xmlns="http://www.topografix.com/GPX/1/1" xmlns:xsi="http://www.w3.org/2001/XMLSchema-instance" xsi:schemaLocation="http://www.topografix.com/GPX/1/1 http://www.topografix.com/GPX/1/1/gpx.xsd" version="1.1" creator="VisuGPX - https://www.visugpx.com">
  <metadata>
    <name>Tourtoirac (boucle de la fontaine de Ladoux)</name>
    <desc><![CDATA[Le chemin traverse une forêt mais aussi des villages typiques du Périgord. Plantation de noyers, croix de chemin.]]></desc>
  </metadata>
  <trk>
    <name><![CDATA[Tourtoirac]]></name>
    <desc><![CDATA[16 mars 2013  2:08 pm]]></desc>
    <trkseg>
      <trkpt lat="45.27157" lon="1.05867">
        <ele>124.741</ele>
        <time>2013-03-16T13:08:36.304Z</time>
      </trkpt>
      <trkpt lat="45.27168" lon="1.05866">
        <ele>124.72</ele>
        <time>2013-03-16T13:08:45.655Z</time>
      </trkpt>
      <trkpt lat="45.27178" lon="1.05866">
        <ele>124.72</ele>
        <time>2013-03-16T13:08:54.009Z</time>
      </trkpt>
      <trkpt lat="45.27188" lon="1.05866">
        <ele>125.721</ele>
        <time>2013-03-16T13:09:01.750Z</time>
      </trkpt>
      <trkpt lat="45.27198" lon="1.05864">
        <ele>128.596</ele>
        <time>2013-03-16T13:09:10.138Z</time>
      </trkpt>
      <trkpt lat="45.27206" lon="1.0587">
        <ele>131.984</ele>
        <time>2013-03-16T13:09:17.551Z</time>
      </trkpt>
      <trkpt lat="45.27213" lon="1.05878">
        <ele>134.159</ele>
        <time>2013-03-16T13:09:25.366Z</time>
      </trkpt>
      <trkpt lat="45.27216" lon="1.05891">
        <ele>135.142</ele>
        <time>2013-03-16T13:09:33.366Z</time>
      </trkpt>
      <trkpt lat="45.27217" lon="1.05906">
        <ele>135.44</ele>
        <time>2013-03-16T13:09:42.271Z</time>
      </trkpt>
      <trkpt lat="45.27216" lon="1.0592">
        <ele>135.218</ele>
        <time>2013-03-16T13:09:49.854Z</time>
      </trkpt>
      <trkpt lat="45.27217" lon="1.05934">
        <ele>134.513</ele>
        <time>2013-03-16T13:09:57.773Z</time>
      </trkpt>
      <trkpt lat="45.27217" lon="1.05947">
        <ele>133.624</ele>
        <time>2013-03-16T13:10:04.941Z</time>
      </trkpt>
      <trkpt lat="45.27217" lon="1.0596">
        <ele>133.021</ele>
        <time>2013-03-16T13:10:12.061Z</time>
      </trkpt>
      <trkpt lat="45.27218" lon="1.05973">
        <ele>132.69</ele>
        <time>2013-03-16T13:10:19.312Z</time>
      </trkpt>
      <trkpt lat="45.27217" lon="1.05986">
        <ele>132.372</ele>
        <time>2013-03-16T13:10:26.523Z</time>
      </trkpt>
      <trkpt lat="45.27217" lon="1.06">
        <ele>132.227</ele>
        <time>2013-03-16T13:10:33.630Z</time>
      </trkpt>
      <trkpt lat="45.27218" lon="1.06013">
        <ele>132.45</ele>
        <time>2013-03-16T13:10:41.071Z</time>
      </trkpt>
      <trkpt lat="45.27217" lon="1.06027">
        <ele>132.658</ele>
        <time>2013-03-16T13:10:48.678Z</time>
      </trkpt>
      <trkpt lat="45.27208" lon="1.06032">
        <ele>132.319</ele>
        <time>2013-03-16T13:10:56.133Z</time>
      </trkpt>
      <trkpt lat="45.27199" lon="1.06034">
        <ele>131.871</ele>
        <time>2013-03-16T13:11:03.303Z</time>
      </trkpt>
      <trkpt lat="45.27199" lon="1.06034">
        <ele>132.092</ele>
        <time>2013-03-16T13:11:15.306Z</time>
      </trkpt>
      <trkpt lat="45.27209" lon="1.06033">
        <ele>132.213</ele>
        <time>2013-03-16T13:11:31.617Z</time>
      </trkpt>
      <trkpt lat="45.27218" lon="1.06036">
        <ele>131.975</ele>
        <time>2013-03-16T13:11:47.159Z</time>
      </trkpt>
      <trkpt lat="45.27227" lon="1.06042">
        <ele>132.061</ele>
        <time>2013-03-16T13:12:04.478Z</time>
      </trkpt>
      <trkpt lat="45.27232" lon="1.06054">
        <ele>132.455</ele>
        <time>2013-03-16T13:12:13.055Z</time>
      </trkpt>
      <trkpt lat="45.27237" lon="1.06065">
        <ele>133.222</ele>
        <time>2013-03-16T13:12:20.647Z</time>
      </trkpt>
      <trkpt lat="45.27244" lon="1.06074">
        <ele>134.425</ele>
        <time>2013-03-16T13:12:28.678Z</time>
      </trkpt>
      <trkpt lat="45.2725" lon="1.06082">
        <ele>135.541</ele>
        <time>2013-03-16T13:12:36.366Z</time>
      </trkpt>
      <trkpt lat="45.27258" lon="1.0609">
        <ele>135.757</ele>
        <time>2013-03-16T13:12:44.593Z</time>
      </trkpt>
      <trkpt lat="45.27267" lon="1.06096">
        <ele>134.934</ele>
        <time>2013-03-16T13:12:52.836Z</time>
      </trkpt>
      <trkpt lat="45.27275" lon="1.06103">
        <ele>133.696</ele>
        <time>2013-03-16T13:13:01.568Z</time>
      </trkpt>
      <trkpt lat="45.27282" lon="1.06112">
        <ele>132.983</ele>
        <time>2013-03-16T13:13:09.507Z</time>
      </trkpt>
      <trkpt lat="45.27286" lon="1.06124">
        <ele>133.047</ele>
        <time>2013-03-16T13:13:17.181Z</time>
      </trkpt>
      <trkpt lat="45.27289" lon="1.06137">
        <ele>133.431</ele>
        <time>2013-03-16T13:13:25.408Z</time>
      </trkpt>
      <trkpt lat="45.27293" lon="1.06149">
        <ele>133.815</ele>
        <time>2013-03-16T13:13:33.515Z</time>
      </trkpt>
      <trkpt lat="45.27297" lon="1.06162">
        <ele>135.146</ele>
        <time>2013-03-16T13:13:42.634Z</time>
      </trkpt>
      <trkpt lat="45.27301" lon="1.06174">
        <ele>137.898</ele>
        <time>2013-03-16T13:13:51.157Z</time>
      </trkpt>
      <trkpt lat="45.27304" lon="1.06186">
        <ele>140.593</ele>
        <time>2013-03-16T13:13:59.373Z</time>
      </trkpt>
      <trkpt lat="45.27307" lon="1.06199">
        <ele>142.085</ele>
        <time>2013-03-16T13:14:08.130Z</time>
      </trkpt>
      <trkpt lat="45.27316" lon="1.06201">
        <ele>142.879</ele>
        <time>2013-03-16T13:14:16.394Z</time>
      </trkpt>
      <trkpt lat="45.27322" lon="1.06192">
        <ele>143.446</ele>
        <time>2013-03-16T13:14:24.642Z</time>
      </trkpt>
      <trkpt lat="45.27325" lon="1.0618">
        <ele>144.259</ele>
        <time>2013-03-16T13:14:32.794Z</time>
      </trkpt>
      <trkpt lat="45.27324" lon="1.06165">
        <ele>145.622</ele>
        <time>2013-03-16T13:14:41.731Z</time>
      </trkpt>
      <trkpt lat="45.27324" lon="1.06151">
        <ele>147.066</ele>
        <time>2013-03-16T13:14:50.703Z</time>
      </trkpt>
      <trkpt lat="45.27327" lon="1.06139">
        <ele>148.023</ele>
        <time>2013-03-16T13:14:58.964Z</time>
      </trkpt>
      <trkpt lat="45.2733" lon="1.06126">
        <ele>148.59</ele>
        <time>2013-03-16T13:15:07.232Z</time>
      </trkpt>
      <trkpt lat="45.27336" lon="1.06114">
        <ele>148.973</ele>
        <time>2013-03-16T13:15:16.500Z</time>
      </trkpt>
      <trkpt lat="45.27339" lon="1.061">
        <ele>149.279</ele>
        <time>2013-03-16T13:15:25.736Z</time>
      </trkpt>
      <trkpt lat="45.27343" lon="1.06087">
        <ele>150.717</ele>
        <time>2013-03-16T13:15:34.311Z</time>
      </trkpt>
      <trkpt lat="45.27343" lon="1.06087">
        <ele>153.948</ele>
        <time>2013-03-16T13:15:41.313Z</time>
      </trkpt>
      <trkpt lat="45.27349" lon="1.06075">
        <ele>159.226</ele>
        <time>2013-03-16T13:15:57.228Z</time>
      </trkpt>
      <trkpt lat="45.27356" lon="1.06067">
        <ele>160.105</ele>
        <time>2013-03-16T13:16:06.522Z</time>
      </trkpt>
      <trkpt lat="45.27366" lon="1.06068">
        <ele>160.701</ele>
        <time>2013-03-16T13:16:14.613Z</time>
      </trkpt>
      <trkpt lat="45.27376" lon="1.06074">
        <ele>160.225</ele>
        <time>2013-03-16T13:16:22.501Z</time>
      </trkpt>
      <trkpt lat="45.27384" lon="1.06082">
        <ele>159.371</ele>
        <time>2013-03-16T13:16:30.077Z</time>
      </trkpt>
      <trkpt lat="45.27391" lon="1.06091">
        <ele>158.977</ele>
        <time>2013-03-16T13:16:37.434Z</time>
      </trkpt>
      <trkpt lat="45.27399" lon="1.06098">
        <ele>159.076</ele>
        <time>2013-03-16T13:16:44.663Z</time>
      </trkpt>
      <trkpt lat="45.27407" lon="1.06105">
        <ele>159.341</ele>
        <time>2013-03-16T13:16:51.568Z</time>
      </trkpt>
      <trkpt lat="45.27415" lon="1.06111">
        <ele>159.434</ele>
        <time>2013-03-16T13:16:58.919Z</time>
      </trkpt>
      <trkpt lat="45.27424" lon="1.06117">
        <ele>159.428</ele>
        <time>2013-03-16T13:17:06.526Z</time>
      </trkpt>
      <trkpt lat="45.27434" lon="1.06123">
        <ele>159.928</ele>
        <time>2013-03-16T13:17:14.865Z</time>
      </trkpt>
      <trkpt lat="45.27442" lon="1.06129">
        <ele>161.218</ele>
        <time>2013-03-16T13:17:21.895Z</time>
      </trkpt>
      <trkpt lat="45.27451" lon="1.06135">
        <ele>162.719</ele>
        <time>2013-03-16T13:17:29.749Z</time>
      </trkpt>
      <trkpt lat="45.2746" lon="1.06141">
        <ele>163.695</ele>
        <time>2013-03-16T13:17:37.391Z</time>
      </trkpt>
      <trkpt lat="45.27468" lon="1.06145">
        <ele>164.158</ele>
        <time>2013-03-16T13:17:44.612Z</time>
      </trkpt>
      <trkpt lat="45.27478" lon="1.06151">
        <ele>164.588</ele>
        <time>2013-03-16T13:17:52.498Z</time>
      </trkpt>
      <trkpt lat="45.27487" lon="1.06156">
        <ele>165.191</ele>
        <time>2013-03-16T13:18:00.300Z</time>
      </trkpt>
      <trkpt lat="45.27495" lon="1.06161">
        <ele>166.459</ele>
        <time>2013-03-16T13:18:07.692Z</time>
      </trkpt>
      <trkpt lat="45.27504" lon="1.06168">
        <ele>169.109</ele>
        <time>2013-03-16T13:18:15.504Z</time>
      </trkpt>
      <trkpt lat="45.27512" lon="1.06177">
        <ele>172.36</ele>
        <time>2013-03-16T13:18:23.393Z</time>
      </trkpt>
      <trkpt lat="45.27519" lon="1.06187">
        <ele>174.535</ele>
        <time>2013-03-16T13:18:31.339Z</time>
      </trkpt>
      <trkpt lat="45.27525" lon="1.06197">
        <ele>175.463</ele>
        <time>2013-03-16T13:18:38.821Z</time>
      </trkpt>
      <trkpt lat="45.27531" lon="1.06207">
        <ele>175.729</ele>
        <time>2013-03-16T13:18:45.989Z</time>
      </trkpt>
      <trkpt lat="45.27538" lon="1.06217">
        <ele>175.63</ele>
        <time>2013-03-16T13:18:53.862Z</time>
      </trkpt>
      <trkpt lat="45.27546" lon="1.06227">
        <ele>175.421</ele>
        <time>2013-03-16T13:19:02.257Z</time>
      </trkpt>
      <trkpt lat="45.27551" lon="1.06238">
        <ele>175.149</ele>
        <time>2013-03-16T13:19:09.475Z</time>
      </trkpt>
      <trkpt lat="45.27557" lon="1.06249">
        <ele>174.822</ele>
        <time>2013-03-16T13:19:16.593Z</time>
      </trkpt>
      <trkpt lat="45.27562" lon="1.06259">
        <ele>174.713</ele>
        <time>2013-03-16T13:19:23.519Z</time>
      </trkpt>
      <trkpt lat="45.27567" lon="1.06271">
        <ele>174.781</ele>
        <time>2013-03-16T13:19:30.885Z</time>
      </trkpt>
      <trkpt lat="45.27574" lon="1.06281">
        <ele>174.851</ele>
        <time>2013-03-16T13:19:38.536Z</time>
      </trkpt>
      <trkpt lat="45.2758" lon="1.06292">
        <ele>174.882</ele>
        <time>2013-03-16T13:19:46.155Z</time>
      </trkpt>
      <trkpt lat="45.27586" lon="1.06302">
        <ele>174.876</ele>
        <time>2013-03-16T13:19:52.684Z</time>
      </trkpt>
      <trkpt lat="45.27594" lon="1.06312">
        <ele>174.853</ele>
        <time>2013-03-16T13:20:00.286Z</time>
      </trkpt>
      <trkpt lat="45.27602" lon="1.06322">
        <ele>174.815</ele>
        <time>2013-03-16T13:20:07.541Z</time>
      </trkpt>
      <trkpt lat="45.27609" lon="1.06329">
        <ele>174.658</ele>
        <time>2013-03-16T13:20:14.117Z</time>
      </trkpt>
      <trkpt lat="45.27617" lon="1.06338">
        <ele>174.357</ele>
        <time>2013-03-16T13:20:20.986Z</time>
      </trkpt>
      <trkpt lat="45.27625" lon="1.06344">
        <ele>174.018</ele>
        <time>2013-03-16T13:20:27.941Z</time>
      </trkpt>
      <trkpt lat="45.27633" lon="1.06352">
        <ele>173.796</ele>
        <time>2013-03-16T13:20:35.313Z</time>
      </trkpt>
      <trkpt lat="45.27633" lon="1.06352">
        <ele>173.723</ele>
        <time>2013-03-16T13:20:51.307Z</time>
      </trkpt>
      <trkpt lat="45.27641" lon="1.06369">
        <ele>173.687</ele>
        <time>2013-03-16T13:21:05.312Z</time>
      </trkpt>
      <trkpt lat="45.27641" lon="1.06369">
        <ele>173.741</ele>
        <time>2013-03-16T13:21:23.307Z</time>
      </trkpt>
      <trkpt lat="45.27649" lon="1.06379">
        <ele>173.557</ele>
        <time>2013-03-16T13:21:37.911Z</time>
      </trkpt>
      <trkpt lat="45.27656" lon="1.0639">
        <ele>173.527</ele>
        <time>2013-03-16T13:21:45.542Z</time>
      </trkpt>
      <trkpt lat="45.27663" lon="1.06398">
        <ele>175.357</ele>
        <time>2013-03-16T13:21:52.523Z</time>
      </trkpt>
      <trkpt lat="45.2767" lon="1.06407">
        <ele>180.133</ele>
        <time>2013-03-16T13:21:59.675Z</time>
      </trkpt>
      <trkpt lat="45.27678" lon="1.06414">
        <ele>185.073</ele>
        <time>2013-03-16T13:22:06.571Z</time>
      </trkpt>
      <trkpt lat="45.27686" lon="1.06423">
        <ele>187.63</ele>
        <time>2013-03-16T13:22:13.996Z</time>
      </trkpt>
      <trkpt lat="45.27696" lon="1.0643">
        <ele>188.464</ele>
        <time>2013-03-16T13:22:22.735Z</time>
      </trkpt>
      <trkpt lat="45.27704" lon="1.06437">
        <ele>188.561</ele>
        <time>2013-03-16T13:22:30.395Z</time>
      </trkpt>
      <trkpt lat="45.27712" lon="1.06445">
        <ele>188.396</ele>
        <time>2013-03-16T13:22:37.527Z</time>
      </trkpt>
      <trkpt lat="45.2772" lon="1.06453">
        <ele>188.213</ele>
        <time>2013-03-16T13:22:44.858Z</time>
      </trkpt>
      <trkpt lat="45.27727" lon="1.06463">
        <ele>188.117</ele>
        <time>2013-03-16T13:22:52.541Z</time>
      </trkpt>
      <trkpt lat="45.27731" lon="1.06476">
        <ele>187.798</ele>
        <time>2013-03-16T13:23:00.177Z</time>
      </trkpt>
      <trkpt lat="45.27735" lon="1.06488">
        <ele>187.051</ele>
        <time>2013-03-16T13:23:07.246Z</time>
      </trkpt>
      <trkpt lat="45.2774" lon="1.065">
        <ele>186.284</ele>
        <time>2013-03-16T13:23:14.807Z</time>
      </trkpt>
      <trkpt lat="45.27745" lon="1.06513">
        <ele>185.827</ele>
        <time>2013-03-16T13:23:22.334Z</time>
      </trkpt>
      <trkpt lat="45.2775" lon="1.06525">
        <ele>185.637</ele>
        <time>2013-03-16T13:23:29.942Z</time>
      </trkpt>
      <trkpt lat="45.27756" lon="1.06537">
        <ele>185.618</ele>
        <time>2013-03-16T13:23:36.887Z</time>
      </trkpt>
      <trkpt lat="45.2776" lon="1.06549">
        <ele>185.621</ele>
        <time>2013-03-16T13:23:44.056Z</time>
      </trkpt>
      <trkpt lat="45.27764" lon="1.06562">
        <ele>185.695</ele>
        <time>2013-03-16T13:23:51.726Z</time>
      </trkpt>
      <trkpt lat="45.27768" lon="1.06575">
        <ele>185.953</ele>
        <time>2013-03-16T13:23:59.239Z</time>
      </trkpt>
      <trkpt lat="45.27773" lon="1.06586">
        <ele>186.235</ele>
        <time>2013-03-16T13:24:06.370Z</time>
      </trkpt>
      <trkpt lat="45.27779" lon="1.06596">
        <ele>186.373</ele>
        <time>2013-03-16T13:24:13.743Z</time>
      </trkpt>
      <trkpt lat="45.27784" lon="1.06607">
        <ele>186.103</ele>
        <time>2013-03-16T13:24:21.812Z</time>
      </trkpt>
      <trkpt lat="45.27791" lon="1.06618">
        <ele>185.316</ele>
        <time>2013-03-16T13:24:29.910Z</time>
      </trkpt>
      <trkpt lat="45.27797" lon="1.06628">
        <ele>184.393</ele>
        <time>2013-03-16T13:24:38.314Z</time>
      </trkpt>
      <trkpt lat="45.27797" lon="1.06628">
        <ele>183.71</ele>
        <time>2013-03-16T13:24:44.319Z</time>
      </trkpt>
      <trkpt lat="45.27804" lon="1.06645">
        <ele>183.078</ele>
        <time>2013-03-16T13:25:05.680Z</time>
      </trkpt>
      <trkpt lat="45.27812" lon="1.06653">
        <ele>182.365</ele>
        <time>2013-03-16T13:25:16.859Z</time>
      </trkpt>
      <trkpt lat="45.2782" lon="1.0666">
        <ele>181.474</ele>
        <time>2013-03-16T13:25:23.997Z</time>
      </trkpt>
      <trkpt lat="45.27826" lon="1.06669">
        <ele>180.937</ele>
        <time>2013-03-16T13:25:31.430Z</time>
      </trkpt>
      <trkpt lat="45.27834" lon="1.06678">
        <ele>179.893</ele>
        <time>2013-03-16T13:25:39.328Z</time>
      </trkpt>
      <trkpt lat="45.27841" lon="1.06689">
        <ele>177.605</ele>
        <time>2013-03-16T13:25:47.264Z</time>
      </trkpt>
      <trkpt lat="45.27848" lon="1.067">
        <ele>175.142</ele>
        <time>2013-03-16T13:25:55.511Z</time>
      </trkpt>
      <trkpt lat="45.27855" lon="1.06708">
        <ele>173.657</ele>
        <time>2013-03-16T13:26:02.585Z</time>
      </trkpt>
      <trkpt lat="45.27864" lon="1.06716">
        <ele>173.067</ele>
        <time>2013-03-16T13:26:10.591Z</time>
      </trkpt>
      <trkpt lat="45.2787" lon="1.06726">
        <ele>173.047</ele>
        <time>2013-03-16T13:26:17.640Z</time>
      </trkpt>
      <trkpt lat="45.27877" lon="1.06735">
        <ele>173.576</ele>
        <time>2013-03-16T13:26:25.311Z</time>
      </trkpt>
      <trkpt lat="45.27877" lon="1.06735">
        <ele>174.639</ele>
        <time>2013-03-16T13:26:34.317Z</time>
      </trkpt>
      <trkpt lat="45.27887" lon="1.06749">
        <ele>175.541</ele>
        <time>2013-03-16T13:26:52.690Z</time>
      </trkpt>
      <trkpt lat="45.27895" lon="1.06755">
        <ele>175.652</ele>
        <time>2013-03-16T13:27:00.826Z</time>
      </trkpt>
      <trkpt lat="45.27903" lon="1.06765">
        <ele>176.276</ele>
        <time>2013-03-16T13:27:09.657Z</time>
      </trkpt>
      <trkpt lat="45.27909" lon="1.06775">
        <ele>177.212</ele>
        <time>2013-03-16T13:27:18.522Z</time>
      </trkpt>
      <trkpt lat="45.27916" lon="1.06786">
        <ele>179.064</ele>
        <time>2013-03-16T13:27:27.422Z</time>
      </trkpt>
      <trkpt lat="45.27923" lon="1.06796">
        <ele>182.217</ele>
        <time>2013-03-16T13:27:36.098Z</time>
      </trkpt>
      <trkpt lat="45.2793" lon="1.06806">
        <ele>185.153</ele>
        <time>2013-03-16T13:27:44.661Z</time>
      </trkpt>
      <trkpt lat="45.27929" lon="1.0682">
        <ele>186.463</ele>
        <time>2013-03-16T13:27:53.415Z</time>
      </trkpt>
      <trkpt lat="45.27933" lon="1.06832">
        <ele>186.277</ele>
        <time>2013-03-16T13:28:02.505Z</time>
      </trkpt>
      <trkpt lat="45.27941" lon="1.06842">
        <ele>185.145</ele>
        <time>2013-03-16T13:28:11.051Z</time>
      </trkpt>
      <trkpt lat="45.27948" lon="1.06853">
        <ele>184.013</ele>
        <time>2013-03-16T13:28:19.751Z</time>
      </trkpt>
      <trkpt lat="45.27955" lon="1.06862">
        <ele>183.485</ele>
        <time>2013-03-16T13:28:27.147Z</time>
      </trkpt>
      <trkpt lat="45.2796" lon="1.06875">
        <ele>183.627</ele>
        <time>2013-03-16T13:28:35.383Z</time>
      </trkpt>
      <trkpt lat="45.27966" lon="1.06887">
        <ele>184.449</ele>
        <time>2013-03-16T13:28:43.603Z</time>
      </trkpt>
      <trkpt lat="45.27972" lon="1.06897">
        <ele>185.816</ele>
        <time>2013-03-16T13:28:51.199Z</time>
      </trkpt>
      <trkpt lat="45.27975" lon="1.0691">
        <ele>187.278</ele>
        <time>2013-03-16T13:28:59.182Z</time>
      </trkpt>
      <trkpt lat="45.27969" lon="1.06919">
        <ele>188.262</ele>
        <time>2013-03-16T13:29:07.062Z</time>
      </trkpt>
      <trkpt lat="45.27967" lon="1.06932">
        <ele>188.69</ele>
        <time>2013-03-16T13:29:15.502Z</time>
      </trkpt>
      <trkpt lat="45.27971" lon="1.06944">
        <ele>188.823</ele>
        <time>2013-03-16T13:29:24.001Z</time>
      </trkpt>
      <trkpt lat="45.27966" lon="1.06957">
        <ele>188.472</ele>
        <time>2013-03-16T13:29:34.112Z</time>
      </trkpt>
      <trkpt lat="45.27962" lon="1.06969">
        <ele>187.544</ele>
        <time>2013-03-16T13:29:45.442Z</time>
      </trkpt>
      <trkpt lat="45.27958" lon="1.06982">
        <ele>186.362</ele>
        <time>2013-03-16T13:29:58.184Z</time>
      </trkpt>
      <trkpt lat="45.27953" lon="1.06994">
        <ele>185.202</ele>
        <time>2013-03-16T13:30:09.125Z</time>
      </trkpt>
      <trkpt lat="45.2795" lon="1.07008">
        <ele>184.303</ele>
        <time>2013-03-16T13:30:19.691Z</time>
      </trkpt>
      <trkpt lat="45.27949" lon="1.07022">
        <ele>183.509</ele>
        <time>2013-03-16T13:30:29.814Z</time>
      </trkpt>
      <trkpt lat="45.27947" lon="1.07036">
        <ele>182.488</ele>
        <time>2013-03-16T13:30:39.225Z</time>
      </trkpt>
      <trkpt lat="45.27944" lon="1.07049">
        <ele>181.556</ele>
        <time>2013-03-16T13:30:47.682Z</time>
      </trkpt>
      <trkpt lat="45.27938" lon="1.07061">
        <ele>181.129</ele>
        <time>2013-03-16T13:30:56.332Z</time>
      </trkpt>
      <trkpt lat="45.27933" lon="1.07073">
        <ele>181.091</ele>
        <time>2013-03-16T13:31:04.158Z</time>
      </trkpt>
      <trkpt lat="45.2793" lon="1.07086">
        <ele>181.802</ele>
        <time>2013-03-16T13:31:12.450Z</time>
      </trkpt>
      <trkpt lat="45.27927" lon="1.07098">
        <ele>183.55</ele>
        <time>2013-03-16T13:31:20.624Z</time>
      </trkpt>
      <trkpt lat="45.27921" lon="1.07109">
        <ele>185.432</ele>
        <time>2013-03-16T13:31:29.617Z</time>
      </trkpt>
      <trkpt lat="45.27913" lon="1.07119">
        <ele>186.447</ele>
        <time>2013-03-16T13:31:38.673Z</time>
      </trkpt>
      <trkpt lat="45.27905" lon="1.07127">
        <ele>186.674</ele>
        <time>2013-03-16T13:31:46.326Z</time>
      </trkpt>
      <trkpt lat="45.27896" lon="1.0713">
        <ele>186.556</ele>
        <time>2013-03-16T13:31:53.743Z</time>
      </trkpt>
      <trkpt lat="45.27889" lon="1.07138">
        <ele>186.638</ele>
        <time>2013-03-16T13:32:01.194Z</time>
      </trkpt>
      <trkpt lat="45.27884" lon="1.0715">
        <ele>187.169</ele>
        <time>2013-03-16T13:32:09.193Z</time>
      </trkpt>
      <trkpt lat="45.27887" lon="1.07162">
        <ele>187.544</ele>
        <time>2013-03-16T13:32:16.569Z</time>
      </trkpt>
      <trkpt lat="45.27891" lon="1.07174">
        <ele>187.102</ele>
        <time>2013-03-16T13:32:24.222Z</time>
      </trkpt>
      <trkpt lat="45.27897" lon="1.07189">
        <ele>186.178</ele>
        <time>2013-03-16T13:32:34.385Z</time>
      </trkpt>
      <trkpt lat="45.27902" lon="1.07202">
        <ele>185.473</ele>
        <time>2013-03-16T13:32:42.835Z</time>
      </trkpt>
      <trkpt lat="45.27907" lon="1.07214">
        <ele>184.775</ele>
        <time>2013-03-16T13:32:51.058Z</time>
      </trkpt>
      <trkpt lat="45.27911" lon="1.07226">
        <ele>183.598</ele>
        <time>2013-03-16T13:32:58.352Z</time>
      </trkpt>
      <trkpt lat="45.27918" lon="1.07235">
        <ele>181.995</ele>
        <time>2013-03-16T13:33:06.163Z</time>
      </trkpt>
      <trkpt lat="45.27924" lon="1.07248">
        <ele>180.351</ele>
        <time>2013-03-16T13:33:14.630Z</time>
      </trkpt>
      <trkpt lat="45.27926" lon="1.07263">
        <ele>179.408</ele>
        <time>2013-03-16T13:33:22.972Z</time>
      </trkpt>
      <trkpt lat="45.27928" lon="1.07276">
        <ele>179.587</ele>
        <time>2013-03-16T13:33:30.311Z</time>
      </trkpt>
      <trkpt lat="45.27928" lon="1.07276">
        <ele>180.037</ele>
        <time>2013-03-16T13:33:40.313Z</time>
      </trkpt>
      <trkpt lat="45.27931" lon="1.07302">
        <ele>179.654</ele>
        <time>2013-03-16T13:34:03.920Z</time>
      </trkpt>
      <trkpt lat="45.27935" lon="1.07315">
        <ele>179.411</ele>
        <time>2013-03-16T13:34:11.849Z</time>
      </trkpt>
      <trkpt lat="45.2794" lon="1.07325">
        <ele>179.099</ele>
        <time>2013-03-16T13:34:19.323Z</time>
      </trkpt>
      <trkpt lat="45.27946" lon="1.07337">
        <ele>178.513</ele>
        <time>2013-03-16T13:34:28.392Z</time>
      </trkpt>
      <trkpt lat="45.27952" lon="1.07353">
        <ele>177.935</ele>
        <time>2013-03-16T13:34:39.526Z</time>
      </trkpt>
      <trkpt lat="45.27956" lon="1.07365">
        <ele>177.63</ele>
        <time>2013-03-16T13:34:47.397Z</time>
      </trkpt>
      <trkpt lat="45.2796" lon="1.07377">
        <ele>177.408</ele>
        <time>2013-03-16T13:34:55.700Z</time>
      </trkpt>
      <trkpt lat="45.27964" lon="1.0739">
        <ele>176.339</ele>
        <time>2013-03-16T13:35:04.442Z</time>
      </trkpt>
      <trkpt lat="45.27968" lon="1.07401">
        <ele>173.993</ele>
        <time>2013-03-16T13:35:12.578Z</time>
      </trkpt>
      <trkpt lat="45.27973" lon="1.07412">
        <ele>171.547</ele>
        <time>2013-03-16T13:35:21.586Z</time>
      </trkpt>
      <trkpt lat="45.27977" lon="1.07426">
        <ele>170.239</ele>
        <time>2013-03-16T13:35:31.350Z</time>
      </trkpt>
      <trkpt lat="45.27976" lon="1.07444">
        <ele>169.665</ele>
        <time>2013-03-16T13:35:43.280Z</time>
      </trkpt>
      <trkpt lat="45.27984" lon="1.07452">
        <ele>168.958</ele>
        <time>2013-03-16T13:35:53.060Z</time>
      </trkpt>
      <trkpt lat="45.27991" lon="1.0746">
        <ele>168.026</ele>
        <time>2013-03-16T13:36:02.311Z</time>
      </trkpt>
      <trkpt lat="45.27991" lon="1.0746">
        <ele>167.395</ele>
        <time>2013-03-16T13:36:08.311Z</time>
      </trkpt>
      <trkpt lat="45.27994" lon="1.07476">
        <ele>166.311</ele>
        <time>2013-03-16T13:36:28.198Z</time>
      </trkpt>
      <trkpt lat="45.27987" lon="1.07488">
        <ele>164.54</ele>
        <time>2013-03-16T13:36:39.596Z</time>
      </trkpt>
      <trkpt lat="45.27981" lon="1.07499">
        <ele>163.932</ele>
        <time>2013-03-16T13:36:47.886Z</time>
      </trkpt>
      <trkpt lat="45.27976" lon="1.0751">
        <ele>165.162</ele>
        <time>2013-03-16T13:36:55.561Z</time>
      </trkpt>
      <trkpt lat="45.2797" lon="1.0752">
        <ele>166.26</ele>
        <time>2013-03-16T13:37:02.885Z</time>
      </trkpt>
      <trkpt lat="45.27975" lon="1.07533">
        <ele>165.958</ele>
        <time>2013-03-16T13:37:11.118Z</time>
      </trkpt>
      <trkpt lat="45.27979" lon="1.07544">
        <ele>164.4</ele>
        <time>2013-03-16T13:37:18.591Z</time>
      </trkpt>
      <trkpt lat="45.27979" lon="1.07558">
        <ele>162.229</ele>
        <time>2013-03-16T13:37:26.279Z</time>
      </trkpt>
      <trkpt lat="45.27972" lon="1.07567">
        <ele>158.945</ele>
        <time>2013-03-16T13:37:33.554Z</time>
      </trkpt>
      <trkpt lat="45.27962" lon="1.07571">
        <ele>154.271</ele>
        <time>2013-03-16T13:37:41.390Z</time>
      </trkpt>
      <trkpt lat="45.27953" lon="1.07576">
        <ele>150.032</ele>
        <time>2013-03-16T13:37:48.907Z</time>
      </trkpt>
      <trkpt lat="45.27945" lon="1.07583">
        <ele>147.927</ele>
        <time>2013-03-16T13:37:56.503Z</time>
      </trkpt>
      <trkpt lat="45.27938" lon="1.0759">
        <ele>147.227</ele>
        <time>2013-03-16T13:38:03.762Z</time>
      </trkpt>
      <trkpt lat="45.27932" lon="1.07599">
        <ele>146.761</ele>
        <time>2013-03-16T13:38:11.262Z</time>
      </trkpt>
      <trkpt lat="45.27926" lon="1.07612">
        <ele>146</ele>
        <time>2013-03-16T13:38:19.954Z</time>
      </trkpt>
      <trkpt lat="45.27919" lon="1.07624">
        <ele>145.043</ele>
        <time>2013-03-16T13:38:29.294Z</time>
      </trkpt>
      <trkpt lat="45.27914" lon="1.07634">
        <ele>144.292</ele>
        <time>2013-03-16T13:38:37.093Z</time>
      </trkpt>
      <trkpt lat="45.27908" lon="1.07645">
        <ele>143.969</ele>
        <time>2013-03-16T13:38:45.655Z</time>
      </trkpt>
      <trkpt lat="45.27906" lon="1.07658">
        <ele>143.893</ele>
        <time>2013-03-16T13:38:53.336Z</time>
      </trkpt>
      <trkpt lat="45.27909" lon="1.07671">
        <ele>143.927</ele>
        <time>2013-03-16T13:39:01.281Z</time>
      </trkpt>
      <trkpt lat="45.27912" lon="1.07686">
        <ele>144.136</ele>
        <time>2013-03-16T13:39:10.409Z</time>
      </trkpt>
      <trkpt lat="45.27914" lon="1.077">
        <ele>144.525</ele>
        <time>2013-03-16T13:39:18.621Z</time>
      </trkpt>
      <trkpt lat="45.27916" lon="1.07712">
        <ele>144.846</ele>
        <time>2013-03-16T13:39:26.021Z</time>
      </trkpt>
      <trkpt lat="45.27921" lon="1.07727">
        <ele>144.927</ele>
        <time>2013-03-16T13:39:35.249Z</time>
      </trkpt>
      <trkpt lat="45.27923" lon="1.0774">
        <ele>144.869</ele>
        <time>2013-03-16T13:39:43.114Z</time>
      </trkpt>
      <trkpt lat="45.27923" lon="1.07754">
        <ele>144.702</ele>
        <time>2013-03-16T13:39:51.014Z</time>
      </trkpt>
      <trkpt lat="45.27924" lon="1.07767">
        <ele>144.407</ele>
        <time>2013-03-16T13:39:58.550Z</time>
      </trkpt>
      <trkpt lat="45.27925" lon="1.0778">
        <ele>144.133</ele>
        <time>2013-03-16T13:40:06.594Z</time>
      </trkpt>
      <trkpt lat="45.27926" lon="1.07793">
        <ele>144.111</ele>
        <time>2013-03-16T13:40:14.541Z</time>
      </trkpt>
      <trkpt lat="45.27923" lon="1.07806">
        <ele>144.577</ele>
        <time>2013-03-16T13:40:22.400Z</time>
      </trkpt>
      <trkpt lat="45.27921" lon="1.07819">
        <ele>145.439</ele>
        <time>2013-03-16T13:40:30.716Z</time>
      </trkpt>
      <trkpt lat="45.27919" lon="1.07832">
        <ele>146.336</ele>
        <time>2013-03-16T13:40:38.946Z</time>
      </trkpt>
      <trkpt lat="45.27915" lon="1.07846">
        <ele>147.118</ele>
        <time>2013-03-16T13:40:48.263Z</time>
      </trkpt>
      <trkpt lat="45.27914" lon="1.07859">
        <ele>147.709</ele>
        <time>2013-03-16T13:40:56.448Z</time>
      </trkpt>
      <trkpt lat="45.27914" lon="1.07873">
        <ele>148.349</ele>
        <time>2013-03-16T13:41:05.460Z</time>
      </trkpt>
      <trkpt lat="45.27913" lon="1.07886">
        <ele>149.342</ele>
        <time>2013-03-16T13:41:13.990Z</time>
      </trkpt>
      <trkpt lat="45.27916" lon="1.07899">
        <ele>150.77</ele>
        <time>2013-03-16T13:41:22.050Z</time>
      </trkpt>
      <trkpt lat="45.27919" lon="1.07912">
        <ele>152.616</ele>
        <time>2013-03-16T13:41:30.825Z</time>
      </trkpt>
      <trkpt lat="45.27922" lon="1.07925">
        <ele>154.487</ele>
        <time>2013-03-16T13:41:39.059Z</time>
      </trkpt>
      <trkpt lat="45.27926" lon="1.07937">
        <ele>155.765</ele>
        <time>2013-03-16T13:41:47.138Z</time>
      </trkpt>
      <trkpt lat="45.27929" lon="1.07949">
        <ele>156.72</ele>
        <time>2013-03-16T13:41:55.055Z</time>
      </trkpt>
      <trkpt lat="45.27934" lon="1.07962">
        <ele>157.787</ele>
        <time>2013-03-16T13:42:04.061Z</time>
      </trkpt>
      <trkpt lat="45.27939" lon="1.07975">
        <ele>158.83</ele>
        <time>2013-03-16T13:42:12.950Z</time>
      </trkpt>
      <trkpt lat="45.27942" lon="1.07989">
        <ele>159.678</ele>
        <time>2013-03-16T13:42:21.629Z</time>
      </trkpt>
      <trkpt lat="45.27946" lon="1.08001">
        <ele>160.647</ele>
        <time>2013-03-16T13:42:29.383Z</time>
      </trkpt>
      <trkpt lat="45.27952" lon="1.08011">
        <ele>161.744</ele>
        <time>2013-03-16T13:42:37.385Z</time>
      </trkpt>
      <trkpt lat="45.2796" lon="1.08021">
        <ele>162.585</ele>
        <time>2013-03-16T13:42:46.294Z</time>
      </trkpt>
      <trkpt lat="45.27968" lon="1.0803">
        <ele>163.048</ele>
        <time>2013-03-16T13:42:54.715Z</time>
      </trkpt>
      <trkpt lat="45.27975" lon="1.0804">
        <ele>163.337</ele>
        <time>2013-03-16T13:43:03.069Z</time>
      </trkpt>
      <trkpt lat="45.27983" lon="1.08049">
        <ele>163.46</ele>
        <time>2013-03-16T13:43:11.428Z</time>
      </trkpt>
      <trkpt lat="45.2799" lon="1.08057">
        <ele>163.4</ele>
        <time>2013-03-16T13:43:18.783Z</time>
      </trkpt>
      <trkpt lat="45.27998" lon="1.08066">
        <ele>163.507</ele>
        <time>2013-03-16T13:43:26.461Z</time>
      </trkpt>
      <trkpt lat="45.28006" lon="1.08074">
        <ele>164.022</ele>
        <time>2013-03-16T13:43:34.737Z</time>
      </trkpt>
      <trkpt lat="45.28013" lon="1.08082">
        <ele>164.379</ele>
        <time>2013-03-16T13:43:42.054Z</time>
      </trkpt>
      <trkpt lat="45.2802" lon="1.0809">
        <ele>164.083</ele>
        <time>2013-03-16T13:43:49.287Z</time>
      </trkpt>
      <trkpt lat="45.28029" lon="1.08097">
        <ele>163.511</ele>
        <time>2013-03-16T13:43:57.213Z</time>
      </trkpt>
      <trkpt lat="45.28033" lon="1.08109">
        <ele>163.125</ele>
        <time>2013-03-16T13:44:04.802Z</time>
      </trkpt>
      <trkpt lat="45.2804" lon="1.08117">
        <ele>162.831</ele>
        <time>2013-03-16T13:44:12.014Z</time>
      </trkpt>
      <trkpt lat="45.28045" lon="1.0813">
        <ele>162.254</ele>
        <time>2013-03-16T13:44:20.471Z</time>
      </trkpt>
      <trkpt lat="45.28051" lon="1.08142">
        <ele>161.318</ele>
        <time>2013-03-16T13:44:28.449Z</time>
      </trkpt>
      <trkpt lat="45.28056" lon="1.08154">
        <ele>160.417</ele>
        <time>2013-03-16T13:44:36.362Z</time>
      </trkpt>
      <trkpt lat="45.28061" lon="1.08166">
        <ele>159.728</ele>
        <time>2013-03-16T13:44:44.037Z</time>
      </trkpt>
      <trkpt lat="45.28064" lon="1.08178">
        <ele>158.949</ele>
        <time>2013-03-16T13:44:51.318Z</time>
      </trkpt>
      <trkpt lat="45.28064" lon="1.08178">
        <ele>158.03</ele>
        <time>2013-03-16T13:45:03.317Z</time>
      </trkpt>
      <trkpt lat="45.28072" lon="1.08198">
        <ele>157.124</ele>
        <time>2013-03-16T13:45:48.314Z</time>
      </trkpt>
      <trkpt lat="45.28072" lon="1.08198">
        <ele>157.089</ele>
        <time>2013-03-16T13:45:54.316Z</time>
      </trkpt>
      <trkpt lat="45.28076" lon="1.0821">
        <ele>156.924</ele>
        <time>2013-03-16T13:46:11.124Z</time>
      </trkpt>
      <trkpt lat="45.2808" lon="1.08223">
        <ele>156.901</ele>
        <time>2013-03-16T13:46:21.802Z</time>
      </trkpt>
      <trkpt lat="45.28082" lon="1.08237">
        <ele>156.317</ele>
        <time>2013-03-16T13:46:30.568Z</time>
      </trkpt>
      <trkpt lat="45.28083" lon="1.08254">
        <ele>154.213</ele>
        <time>2013-03-16T13:46:40.269Z</time>
      </trkpt>
      <trkpt lat="45.28083" lon="1.08268">
        <ele>151.108</ele>
        <time>2013-03-16T13:46:48.454Z</time>
      </trkpt>
      <trkpt lat="45.28079" lon="1.0828">
        <ele>148.763</ele>
        <time>2013-03-16T13:46:56.041Z</time>
      </trkpt>
      <trkpt lat="45.28077" lon="1.08292">
        <ele>147.876</ele>
        <time>2013-03-16T13:47:03.876Z</time>
      </trkpt>
      <trkpt lat="45.28074" lon="1.08305">
        <ele>147.877</ele>
        <time>2013-03-16T13:47:12.136Z</time>
      </trkpt>
      <trkpt lat="45.28071" lon="1.08318">
        <ele>148.443</ele>
        <time>2013-03-16T13:47:20.318Z</time>
      </trkpt>
      <trkpt lat="45.28071" lon="1.08318">
        <ele>149.447</ele>
        <time>2013-03-16T13:47:31.315Z</time>
      </trkpt>
      <trkpt lat="45.28071" lon="1.08332">
        <ele>150.747</ele>
        <time>2013-03-16T13:47:42.005Z</time>
      </trkpt>
      <trkpt lat="45.28066" lon="1.08344">
        <ele>150.602</ele>
        <time>2013-03-16T13:47:49.801Z</time>
      </trkpt>
      <trkpt lat="45.28059" lon="1.08356">
        <ele>150.038</ele>
        <time>2013-03-16T13:47:58.318Z</time>
      </trkpt>
      <trkpt lat="45.28059" lon="1.08356">
        <ele>149.47</ele>
        <time>2013-03-16T13:48:11.319Z</time>
      </trkpt>
      <trkpt lat="45.28051" lon="1.08376">
        <ele>149.169</ele>
        <time>2013-03-16T13:48:24.523Z</time>
      </trkpt>
      <trkpt lat="45.28046" lon="1.08387">
        <ele>149.225</ele>
        <time>2013-03-16T13:48:29.273Z</time>
      </trkpt>
      <trkpt lat="45.28042" lon="1.084">
        <ele>149.28</ele>
        <time>2013-03-16T13:48:34.318Z</time>
      </trkpt>
      <trkpt lat="45.28042" lon="1.084">
        <ele>149.305</ele>
        <time>2013-03-16T13:48:47.316Z</time>
      </trkpt>
      <trkpt lat="45.28041" lon="1.08417">
        <ele>149.219</ele>
        <time>2013-03-16T13:49:01.993Z</time>
      </trkpt>
      <trkpt lat="45.28044" lon="1.08429">
        <ele>148.907</ele>
        <time>2013-03-16T13:49:08.366Z</time>
      </trkpt>
      <trkpt lat="45.28049" lon="1.08442">
        <ele>148.249</ele>
        <time>2013-03-16T13:49:15.316Z</time>
      </trkpt>
      <trkpt lat="45.28049" lon="1.08442">
        <ele>147.701</ele>
        <time>2013-03-16T13:49:23.318Z</time>
      </trkpt>
      <trkpt lat="45.28053" lon="1.08454">
        <ele>147.766</ele>
        <time>2013-03-16T13:49:36.091Z</time>
      </trkpt>
      <trkpt lat="45.28057" lon="1.08466">
        <ele>147.634</ele>
        <time>2013-03-16T13:49:44.335Z</time>
      </trkpt>
      <trkpt lat="45.28063" lon="1.08477">
        <ele>147.542</ele>
        <time>2013-03-16T13:49:52.958Z</time>
      </trkpt>
      <trkpt lat="45.28062" lon="1.08491">
        <ele>147.282</ele>
        <time>2013-03-16T13:50:01.773Z</time>
      </trkpt>
      <trkpt lat="45.28067" lon="1.08502">
        <ele>146.467</ele>
        <time>2013-03-16T13:50:10.216Z</time>
      </trkpt>
      <trkpt lat="45.28072" lon="1.08514">
        <ele>145.284</ele>
        <time>2013-03-16T13:50:19.501Z</time>
      </trkpt>
      <trkpt lat="45.28074" lon="1.08528">
        <ele>144.319</ele>
        <time>2013-03-16T13:50:29.170Z</time>
      </trkpt>
      <trkpt lat="45.28078" lon="1.0854">
        <ele>143.711</ele>
        <time>2013-03-16T13:50:38.432Z</time>
      </trkpt>
      <trkpt lat="45.28078" lon="1.08554">
        <ele>143.299</ele>
        <time>2013-03-16T13:50:47.535Z</time>
      </trkpt>
      <trkpt lat="45.28077" lon="1.08539">
        <ele>143.075</ele>
        <time>2013-03-16T13:50:57.439Z</time>
      </trkpt>
      <trkpt lat="45.28075" lon="1.08526">
        <ele>143.111</ele>
        <time>2013-03-16T13:51:07.089Z</time>
      </trkpt>
      <trkpt lat="45.28072" lon="1.08514">
        <ele>143.542</ele>
        <time>2013-03-16T13:51:16.980Z</time>
      </trkpt>
      <trkpt lat="45.28069" lon="1.085">
        <ele>144.086</ele>
        <time>2013-03-16T13:51:28.249Z</time>
      </trkpt>
      <trkpt lat="45.28064" lon="1.08489">
        <ele>144.319</ele>
        <time>2013-03-16T13:51:39.320Z</time>
      </trkpt>
      <trkpt lat="45.28064" lon="1.08489">
        <ele>144.353</ele>
        <time>2013-03-16T13:51:51.319Z</time>
      </trkpt>
      <trkpt lat="45.28059" lon="1.08499">
        <ele>144.43</ele>
        <time>2013-03-16T13:52:06.563Z</time>
      </trkpt>
      <trkpt lat="45.28053" lon="1.0851">
        <ele>144.336</ele>
        <time>2013-03-16T13:52:21.686Z</time>
      </trkpt>
      <trkpt lat="45.28047" lon="1.08523">
        <ele>144.006</ele>
        <time>2013-03-16T13:52:30.243Z</time>
      </trkpt>
      <trkpt lat="45.28041" lon="1.08533">
        <ele>142.867</ele>
        <time>2013-03-16T13:52:37.680Z</time>
      </trkpt>
      <trkpt lat="45.28033" lon="1.08542">
        <ele>140.925</ele>
        <time>2013-03-16T13:52:45.467Z</time>
      </trkpt>
      <trkpt lat="45.28025" lon="1.08549">
        <ele>139.266</ele>
        <time>2013-03-16T13:52:52.411Z</time>
      </trkpt>
      <trkpt lat="45.28017" lon="1.08556">
        <ele>138.281</ele>
        <time>2013-03-16T13:52:59.686Z</time>
      </trkpt>
      <trkpt lat="45.28008" lon="1.0856">
        <ele>137.475</ele>
        <time>2013-03-16T13:53:06.551Z</time>
      </trkpt>
      <trkpt lat="45.27997" lon="1.0856">
        <ele>136.858</ele>
        <time>2013-03-16T13:53:14.234Z</time>
      </trkpt>
      <trkpt lat="45.27988" lon="1.0856">
        <ele>136.624</ele>
        <time>2013-03-16T13:53:21.449Z</time>
      </trkpt>
      <trkpt lat="45.27978" lon="1.0856">
        <ele>136.9</ele>
        <time>2013-03-16T13:53:28.821Z</time>
      </trkpt>
      <trkpt lat="45.27968" lon="1.08561">
        <ele>137.39</ele>
        <time>2013-03-16T13:53:36.422Z</time>
      </trkpt>
      <trkpt lat="45.27958" lon="1.08559">
        <ele>137.371</ele>
        <time>2013-03-16T13:53:44.162Z</time>
      </trkpt>
      <trkpt lat="45.27949" lon="1.08558">
        <ele>136.775</ele>
        <time>2013-03-16T13:53:51.541Z</time>
      </trkpt>
      <trkpt lat="45.2794" lon="1.08558">
        <ele>136.16</ele>
        <time>2013-03-16T13:53:58.835Z</time>
      </trkpt>
      <trkpt lat="45.27931" lon="1.08557">
        <ele>135.735</ele>
        <time>2013-03-16T13:54:06.227Z</time>
      </trkpt>
      <trkpt lat="45.27922" lon="1.08558">
        <ele>135.475</ele>
        <time>2013-03-16T13:54:13.937Z</time>
      </trkpt>
      <trkpt lat="45.27912" lon="1.08558">
        <ele>135.124</ele>
        <time>2013-03-16T13:54:21.655Z</time>
      </trkpt>
      <trkpt lat="45.27903" lon="1.08558">
        <ele>134.553</ele>
        <time>2013-03-16T13:54:29.327Z</time>
      </trkpt>
      <trkpt lat="45.27892" lon="1.08558">
        <ele>134.024</ele>
        <time>2013-03-16T13:54:38.123Z</time>
      </trkpt>
      <trkpt lat="45.27881" lon="1.08557">
        <ele>133.954</ele>
        <time>2013-03-16T13:54:46.320Z</time>
      </trkpt>
      <trkpt lat="45.27872" lon="1.08556">
        <ele>134.355</ele>
        <time>2013-03-16T13:54:53.429Z</time>
      </trkpt>
      <trkpt lat="45.27862" lon="1.08555">
        <ele>134.678</ele>
        <time>2013-03-16T13:55:00.900Z</time>
      </trkpt>
      <trkpt lat="45.27853" lon="1.08555">
        <ele>134.501</ele>
        <time>2013-03-16T13:55:07.749Z</time>
      </trkpt>
      <trkpt lat="45.27843" lon="1.08559">
        <ele>134.005</ele>
        <time>2013-03-16T13:55:15.628Z</time>
      </trkpt>
      <trkpt lat="45.27833" lon="1.08563">
        <ele>133.482</ele>
        <time>2013-03-16T13:55:23.266Z</time>
      </trkpt>
      <trkpt lat="45.27824" lon="1.08567">
        <ele>133.123</ele>
        <time>2013-03-16T13:55:29.896Z</time>
      </trkpt>
      <trkpt lat="45.27817" lon="1.08576">
        <ele>132.863</ele>
        <time>2013-03-16T13:55:36.821Z</time>
      </trkpt>
      <trkpt lat="45.27811" lon="1.08587">
        <ele>132.511</ele>
        <time>2013-03-16T13:55:44.124Z</time>
      </trkpt>
      <trkpt lat="45.27804" lon="1.08598">
        <ele>132.321</ele>
        <time>2013-03-16T13:55:51.462Z</time>
      </trkpt>
      <trkpt lat="45.27799" lon="1.08611">
        <ele>132.536</ele>
        <time>2013-03-16T13:55:58.991Z</time>
      </trkpt>
      <trkpt lat="45.27793" lon="1.08622">
        <ele>132.752</ele>
        <time>2013-03-16T13:56:06.322Z</time>
      </trkpt>
      <trkpt lat="45.27793" lon="1.08622">
        <ele>132.595</ele>
        <time>2013-03-16T13:56:16.323Z</time>
      </trkpt>
      <trkpt lat="45.27793" lon="1.08622">
        <ele>132.327</ele>
        <time>2013-03-16T13:56:37.323Z</time>
      </trkpt>
      <trkpt lat="45.27775" lon="1.08652">
        <ele>132.34</ele>
        <time>2013-03-16T13:57:19.932Z</time>
      </trkpt>
      <trkpt lat="45.27769" lon="1.08663">
        <ele>132.417</ele>
        <time>2013-03-16T13:57:28.322Z</time>
      </trkpt>
      <trkpt lat="45.27769" lon="1.08663">
        <ele>132.453</ele>
        <time>2013-03-16T13:57:29.324Z</time>
      </trkpt>
      <trkpt lat="45.27763" lon="1.08678">
        <ele>132.374</ele>
        <time>2013-03-16T13:57:41.322Z</time>
      </trkpt>
      <trkpt lat="45.27763" lon="1.08678">
        <ele>132.318</ele>
        <time>2013-03-16T13:57:43.322Z</time>
      </trkpt>
      <trkpt lat="45.2776" lon="1.08694">
        <ele>132.234</ele>
        <time>2013-03-16T13:58:05.892Z</time>
      </trkpt>
      <trkpt lat="45.27753" lon="1.08705">
        <ele>132.197</ele>
        <time>2013-03-16T13:58:24.891Z</time>
      </trkpt>
      <trkpt lat="45.27748" lon="1.08716">
        <ele>131.956</ele>
        <time>2013-03-16T13:58:43.353Z</time>
      </trkpt>
      <trkpt lat="45.2774" lon="1.08726">
        <ele>131.605</ele>
        <time>2013-03-16T13:59:04.363Z</time>
      </trkpt>
      <trkpt lat="45.27734" lon="1.08737">
        <ele>131.59</ele>
        <time>2013-03-16T13:59:19.698Z</time>
      </trkpt>
      <trkpt lat="45.27731" lon="1.08751">
        <ele>131.893</ele>
        <time>2013-03-16T13:59:29.645Z</time>
      </trkpt>
      <trkpt lat="45.27724" lon="1.08761">
        <ele>132.398</ele>
        <time>2013-03-16T13:59:39.678Z</time>
      </trkpt>
      <trkpt lat="45.27716" lon="1.08769">
        <ele>133.265</ele>
        <time>2013-03-16T13:59:49.227Z</time>
      </trkpt>
      <trkpt lat="45.2771" lon="1.08779">
        <ele>134.25</ele>
        <time>2013-03-16T13:59:58.822Z</time>
      </trkpt>
      <trkpt lat="45.27703" lon="1.08789">
        <ele>134.955</ele>
        <time>2013-03-16T14:00:08.927Z</time>
      </trkpt>
      <trkpt lat="45.27696" lon="1.088">
        <ele>135.282</ele>
        <time>2013-03-16T14:00:19.426Z</time>
      </trkpt>
      <trkpt lat="45.2769" lon="1.0881">
        <ele>135.327</ele>
        <time>2013-03-16T14:00:29.183Z</time>
      </trkpt>
      <trkpt lat="45.27682" lon="1.08818">
        <ele>135.214</ele>
        <time>2013-03-16T14:00:39.665Z</time>
      </trkpt>
      <trkpt lat="45.27673" lon="1.08826">
        <ele>135.017</ele>
        <time>2013-03-16T14:00:49.905Z</time>
      </trkpt>
      <trkpt lat="45.27682" lon="1.08821">
        <ele>134.513</ele>
        <time>2013-03-16T14:00:59.288Z</time>
      </trkpt>
      <trkpt lat="45.2769" lon="1.08815">
        <ele>133.256</ele>
        <time>2013-03-16T14:01:08.565Z</time>
      </trkpt>
      <trkpt lat="45.27697" lon="1.08805">
        <ele>131.538</ele>
        <time>2013-03-16T14:01:18.087Z</time>
      </trkpt>
      <trkpt lat="45.27702" lon="1.08794">
        <ele>130.289</ele>
        <time>2013-03-16T14:01:27.906Z</time>
      </trkpt>
      <trkpt lat="45.27708" lon="1.08784">
        <ele>129.839</ele>
        <time>2013-03-16T14:01:37.095Z</time>
      </trkpt>
      <trkpt lat="45.27716" lon="1.08776">
        <ele>129.857</ele>
        <time>2013-03-16T14:01:46.739Z</time>
      </trkpt>
      <trkpt lat="45.27722" lon="1.08765">
        <ele>129.998</ele>
        <time>2013-03-16T14:01:56.940Z</time>
      </trkpt>
      <trkpt lat="45.27728" lon="1.08756">
        <ele>130.1</ele>
        <time>2013-03-16T14:02:06.325Z</time>
      </trkpt>
      <trkpt lat="45.27728" lon="1.08756">
        <ele>130.113</ele>
        <time>2013-03-16T14:02:16.323Z</time>
      </trkpt>
      <trkpt lat="45.27736" lon="1.08742">
        <ele>129.98</ele>
        <time>2013-03-16T14:02:27.745Z</time>
      </trkpt>
      <trkpt lat="45.27738" lon="1.08729">
        <ele>129.944</ele>
        <time>2013-03-16T14:02:33.933Z</time>
      </trkpt>
      <trkpt lat="45.27744" lon="1.08716">
        <ele>129.938</ele>
        <time>2013-03-16T14:02:41.217Z</time>
      </trkpt>
      <trkpt lat="45.27749" lon="1.08705">
        <ele>130.133</ele>
        <time>2013-03-16T14:02:47.036Z</time>
      </trkpt>
      <trkpt lat="45.27756" lon="1.08696">
        <ele>130.791</ele>
        <time>2013-03-16T14:02:53.210Z</time>
      </trkpt>
      <trkpt lat="45.2776" lon="1.08683">
        <ele>131.921</ele>
        <time>2013-03-16T14:02:59.593Z</time>
      </trkpt>
      <trkpt lat="45.27767" lon="1.08672">
        <ele>133.526</ele>
        <time>2013-03-16T14:03:06.273Z</time>
      </trkpt>
      <trkpt lat="45.27772" lon="1.08662">
        <ele>135.907</ele>
        <time>2013-03-16T14:03:12.327Z</time>
      </trkpt>
      <trkpt lat="45.27772" lon="1.08662">
        <ele>138.636</ele>
        <time>2013-03-16T14:03:26.325Z</time>
      </trkpt>
      <trkpt lat="45.27781" lon="1.08644">
        <ele>141.193</ele>
        <time>2013-03-16T14:03:46.758Z</time>
      </trkpt>
      <trkpt lat="45.27784" lon="1.08631">
        <ele>141.507</ele>
        <time>2013-03-16T14:03:55.155Z</time>
      </trkpt>
      <trkpt lat="45.27789" lon="1.0862">
        <ele>142.233</ele>
        <time>2013-03-16T14:04:03.170Z</time>
      </trkpt>
      <trkpt lat="45.27794" lon="1.08609">
        <ele>143.151</ele>
        <time>2013-03-16T14:04:11.288Z</time>
      </trkpt>
      <trkpt lat="45.27802" lon="1.086">
        <ele>143.716</ele>
        <time>2013-03-16T14:04:19.712Z</time>
      </trkpt>
      <trkpt lat="45.27808" lon="1.08589">
        <ele>143.797</ele>
        <time>2013-03-16T14:04:27.661Z</time>
      </trkpt>
      <trkpt lat="45.27815" lon="1.0858">
        <ele>143.602</ele>
        <time>2013-03-16T14:04:35.182Z</time>
      </trkpt>
      <trkpt lat="45.27823" lon="1.08572">
        <ele>142.442</ele>
        <time>2013-03-16T14:04:43.448Z</time>
      </trkpt>
      <trkpt lat="45.2783" lon="1.08563">
        <ele>139.5</ele>
        <time>2013-03-16T14:04:51.487Z</time>
      </trkpt>
      <trkpt lat="45.27839" lon="1.08558">
        <ele>136.067</ele>
        <time>2013-03-16T14:04:58.910Z</time>
      </trkpt>
      <trkpt lat="45.27849" lon="1.08555">
        <ele>133.817</ele>
        <time>2013-03-16T14:05:06.997Z</time>
      </trkpt>
      <trkpt lat="45.27858" lon="1.08553">
        <ele>132.514</ele>
        <time>2013-03-16T14:05:14.725Z</time>
      </trkpt>
      <trkpt lat="45.27868" lon="1.08553">
        <ele>131.264</ele>
        <time>2013-03-16T14:05:22.660Z</time>
      </trkpt>
      <trkpt lat="45.27878" lon="1.08553">
        <ele>129.923</ele>
        <time>2013-03-16T14:05:29.924Z</time>
      </trkpt>
      <trkpt lat="45.27887" lon="1.08553">
        <ele>128.934</ele>
        <time>2013-03-16T14:05:37.331Z</time>
      </trkpt>
      <trkpt lat="45.27887" lon="1.08553">
        <ele>128.482</ele>
        <time>2013-03-16T14:05:45.325Z</time>
      </trkpt>
      <trkpt lat="45.27898" lon="1.08553">
        <ele>128.422</ele>
        <time>2013-03-16T14:05:58.467Z</time>
      </trkpt>
      <trkpt lat="45.27907" lon="1.08555">
        <ele>128.437</ele>
        <time>2013-03-16T14:06:04.678Z</time>
      </trkpt>
      <trkpt lat="45.27916" lon="1.08556">
        <ele>128.428</ele>
        <time>2013-03-16T14:06:10.579Z</time>
      </trkpt>
      <trkpt lat="45.27925" lon="1.08558">
        <ele>128.454</ele>
        <time>2013-03-16T14:06:16.417Z</time>
      </trkpt>
      <trkpt lat="45.27935" lon="1.08558">
        <ele>128.697</ele>
        <time>2013-03-16T14:06:22.329Z</time>
      </trkpt>
      <trkpt lat="45.27935" lon="1.08558">
        <ele>129.144</ele>
        <time>2013-03-16T14:06:35.329Z</time>
      </trkpt>
      <trkpt lat="45.27947" lon="1.08562">
        <ele>129.686</ele>
        <time>2013-03-16T14:06:47.864Z</time>
      </trkpt>
      <trkpt lat="45.27958" lon="1.08564">
        <ele>129.944</ele>
        <time>2013-03-16T14:06:55.216Z</time>
      </trkpt>
      <trkpt lat="45.27968" lon="1.08563">
        <ele>130.561</ele>
        <time>2013-03-16T14:07:01.817Z</time>
      </trkpt>
      <trkpt lat="45.27978" lon="1.08564">
        <ele>131.738</ele>
        <time>2013-03-16T14:07:08.745Z</time>
      </trkpt>
      <trkpt lat="45.27987" lon="1.08563">
        <ele>133.467</ele>
        <time>2013-03-16T14:07:14.955Z</time>
      </trkpt>
      <trkpt lat="45.27998" lon="1.08562">
        <ele>135.151</ele>
        <time>2013-03-16T14:07:22.455Z</time>
      </trkpt>
      <trkpt lat="45.28007" lon="1.08561">
        <ele>136.167</ele>
        <time>2013-03-16T14:07:29.192Z</time>
      </trkpt>
      <trkpt lat="45.28016" lon="1.08554">
        <ele>136.452</ele>
        <time>2013-03-16T14:07:35.906Z</time>
      </trkpt>
      <trkpt lat="45.28024" lon="1.08548">
        <ele>136.133</ele>
        <time>2013-03-16T14:07:42.397Z</time>
      </trkpt>
      <trkpt lat="45.28032" lon="1.0854">
        <ele>135.765</ele>
        <time>2013-03-16T14:07:49.402Z</time>
      </trkpt>
      <trkpt lat="45.28038" lon="1.08529">
        <ele>135.814</ele>
        <time>2013-03-16T14:07:56.852Z</time>
      </trkpt>
      <trkpt lat="45.28046" lon="1.0852">
        <ele>136.32</ele>
        <time>2013-03-16T14:08:04.340Z</time>
      </trkpt>
      <trkpt lat="45.28051" lon="1.08509">
        <ele>137.07</ele>
        <time>2013-03-16T14:08:11.193Z</time>
      </trkpt>
      <trkpt lat="45.28056" lon="1.08496">
        <ele>137.938</ele>
        <time>2013-03-16T14:08:18.911Z</time>
      </trkpt>
      <trkpt lat="45.28061" lon="1.08486">
        <ele>138.848</ele>
        <time>2013-03-16T14:08:25.916Z</time>
      </trkpt>
      <trkpt lat="45.28065" lon="1.08473">
        <ele>140.001</ele>
        <time>2013-03-16T14:08:33.592Z</time>
      </trkpt>
      <trkpt lat="45.28068" lon="1.08461">
        <ele>141.433</ele>
        <time>2013-03-16T14:08:40.705Z</time>
      </trkpt>
      <trkpt lat="45.28073" lon="1.08449">
        <ele>142.616</ele>
        <time>2013-03-16T14:08:48.055Z</time>
      </trkpt>
      <trkpt lat="45.28078" lon="1.08437">
        <ele>143.097</ele>
        <time>2013-03-16T14:08:55.597Z</time>
      </trkpt>
      <trkpt lat="45.28083" lon="1.08425">
        <ele>143.084</ele>
        <time>2013-03-16T14:09:03.068Z</time>
      </trkpt>
      <trkpt lat="45.28088" lon="1.08413">
        <ele>142.867</ele>
        <time>2013-03-16T14:09:10.690Z</time>
      </trkpt>
      <trkpt lat="45.28093" lon="1.08401">
        <ele>142.67</ele>
        <time>2013-03-16T14:09:17.802Z</time>
      </trkpt>
      <trkpt lat="45.281" lon="1.08392">
        <ele>142.421</ele>
        <time>2013-03-16T14:09:25.333Z</time>
      </trkpt>
      <trkpt lat="45.281" lon="1.08392">
        <ele>142.102</ele>
        <time>2013-03-16T14:09:37.329Z</time>
      </trkpt>
      <trkpt lat="45.28103" lon="1.0838">
        <ele>142.213</ele>
        <time>2013-03-16T14:09:53.332Z</time>
      </trkpt>
      <trkpt lat="45.28103" lon="1.0838">
        <ele>142.242</ele>
        <time>2013-03-16T14:10:03.330Z</time>
      </trkpt>
      <trkpt lat="45.28107" lon="1.08366">
        <ele>142.058</ele>
        <time>2013-03-16T14:10:17.197Z</time>
      </trkpt>
      <trkpt lat="45.28111" lon="1.08355">
        <ele>142.059</ele>
        <time>2013-03-16T14:10:24.641Z</time>
      </trkpt>
      <trkpt lat="45.28114" lon="1.08343">
        <ele>142.752</ele>
        <time>2013-03-16T14:10:32.162Z</time>
      </trkpt>
      <trkpt lat="45.28119" lon="1.0833">
        <ele>144.581</ele>
        <time>2013-03-16T14:10:40.477Z</time>
      </trkpt>
      <trkpt lat="45.28124" lon="1.08318">
        <ele>146.669</ele>
        <time>2013-03-16T14:10:48.031Z</time>
      </trkpt>
      <trkpt lat="45.28126" lon="1.08306">
        <ele>148.173</ele>
        <time>2013-03-16T14:10:55.331Z</time>
      </trkpt>
      <trkpt lat="45.28126" lon="1.08306">
        <ele>149.106</ele>
        <time>2013-03-16T14:11:09.330Z</time>
      </trkpt>
      <trkpt lat="45.28133" lon="1.08295">
        <ele>149.232</ele>
        <time>2013-03-16T14:11:25.577Z</time>
      </trkpt>
      <trkpt lat="45.28138" lon="1.08283">
        <ele>149.312</ele>
        <time>2013-03-16T14:11:36.473Z</time>
      </trkpt>
      <trkpt lat="45.28143" lon="1.08271">
        <ele>149.278</ele>
        <time>2013-03-16T14:11:44.039Z</time>
      </trkpt>
      <trkpt lat="45.28147" lon="1.0826">
        <ele>149.085</ele>
        <time>2013-03-16T14:11:51.096Z</time>
      </trkpt>
      <trkpt lat="45.28151" lon="1.08248">
        <ele>148.95</ele>
        <time>2013-03-16T14:11:57.930Z</time>
      </trkpt>
      <trkpt lat="45.28156" lon="1.08236">
        <ele>149.152</ele>
        <time>2013-03-16T14:12:05.508Z</time>
      </trkpt>
      <trkpt lat="45.28162" lon="1.08225">
        <ele>149.871</ele>
        <time>2013-03-16T14:12:13.115Z</time>
      </trkpt>
      <trkpt lat="45.28168" lon="1.08212">
        <ele>150.799</ele>
        <time>2013-03-16T14:12:21.217Z</time>
      </trkpt>
      <trkpt lat="45.28173" lon="1.08201">
        <ele>151.566</ele>
        <time>2013-03-16T14:12:28.329Z</time>
      </trkpt>
      <trkpt lat="45.28173" lon="1.08201">
        <ele>152.093</ele>
        <time>2013-03-16T14:12:41.332Z</time>
      </trkpt>
      <trkpt lat="45.28179" lon="1.08182">
        <ele>152.455</ele>
        <time>2013-03-16T14:13:02.426Z</time>
      </trkpt>
      <trkpt lat="45.28183" lon="1.08169">
        <ele>152.515</ele>
        <time>2013-03-16T14:13:10.010Z</time>
      </trkpt>
      <trkpt lat="45.28187" lon="1.08157">
        <ele>152.469</ele>
        <time>2013-03-16T14:13:17.328Z</time>
      </trkpt>
      <trkpt lat="45.28191" lon="1.08145">
        <ele>152.34</ele>
        <time>2013-03-16T14:13:24.606Z</time>
      </trkpt>
      <trkpt lat="45.28195" lon="1.08133">
        <ele>152.25</ele>
        <time>2013-03-16T14:13:32.148Z</time>
      </trkpt>
      <trkpt lat="45.282" lon="1.08121">
        <ele>152.432</ele>
        <time>2013-03-16T14:13:39.973Z</time>
      </trkpt>
      <trkpt lat="45.28204" lon="1.08108">
        <ele>153.04</ele>
        <time>2013-03-16T14:13:47.658Z</time>
      </trkpt>
      <trkpt lat="45.28208" lon="1.08095">
        <ele>153.749</ele>
        <time>2013-03-16T14:13:55.507Z</time>
      </trkpt>
      <trkpt lat="45.28214" lon="1.08083">
        <ele>154.285</ele>
        <time>2013-03-16T14:14:03.114Z</time>
      </trkpt>
      <trkpt lat="45.28219" lon="1.08073">
        <ele>155.128</ele>
        <time>2013-03-16T14:14:10.231Z</time>
      </trkpt>
      <trkpt lat="45.28224" lon="1.08061">
        <ele>156.54</ele>
        <time>2013-03-16T14:14:18.003Z</time>
      </trkpt>
      <trkpt lat="45.28228" lon="1.08048">
        <ele>157.983</ele>
        <time>2013-03-16T14:14:25.753Z</time>
      </trkpt>
      <trkpt lat="45.28232" lon="1.08036">
        <ele>159.103</ele>
        <time>2013-03-16T14:14:33.484Z</time>
      </trkpt>
      <trkpt lat="45.28237" lon="1.08023">
        <ele>159.99</ele>
        <time>2013-03-16T14:14:41.622Z</time>
      </trkpt>
      <trkpt lat="45.28242" lon="1.08012">
        <ele>160.578</ele>
        <time>2013-03-16T14:14:49.189Z</time>
      </trkpt>
      <trkpt lat="45.28248" lon="1.08002">
        <ele>160.851</ele>
        <time>2013-03-16T14:14:57.089Z</time>
      </trkpt>
      <trkpt lat="45.28253" lon="1.07989">
        <ele>160.959</ele>
        <time>2013-03-16T14:15:05.612Z</time>
      </trkpt>
      <trkpt lat="45.28259" lon="1.07979">
        <ele>161.001</ele>
        <time>2013-03-16T14:15:13.864Z</time>
      </trkpt>
      <trkpt lat="45.28265" lon="1.07968">
        <ele>161.117</ele>
        <time>2013-03-16T14:15:22.118Z</time>
      </trkpt>
      <trkpt lat="45.28271" lon="1.07959">
        <ele>161.29</ele>
        <time>2013-03-16T14:15:30.131Z</time>
      </trkpt>
      <trkpt lat="45.28278" lon="1.0795">
        <ele>161.29</ele>
        <time>2013-03-16T14:15:38.295Z</time>
      </trkpt>
      <trkpt lat="45.28287" lon="1.07942">
        <ele>161.124</ele>
        <time>2013-03-16T14:15:47.180Z</time>
      </trkpt>
      <trkpt lat="45.28296" lon="1.07936">
        <ele>161.178</ele>
        <time>2013-03-16T14:15:55.328Z</time>
      </trkpt>
      <trkpt lat="45.28305" lon="1.07929">
        <ele>161.595</ele>
        <time>2013-03-16T14:16:03.164Z</time>
      </trkpt>
      <trkpt lat="45.28315" lon="1.07925">
        <ele>162.166</ele>
        <time>2013-03-16T14:16:11.219Z</time>
      </trkpt>
      <trkpt lat="45.28323" lon="1.07919">
        <ele>162.556</ele>
        <time>2013-03-16T14:16:18.342Z</time>
      </trkpt>
      <trkpt lat="45.28333" lon="1.07917">
        <ele>162.732</ele>
        <time>2013-03-16T14:16:25.312Z</time>
      </trkpt>
      <trkpt lat="45.28343" lon="1.07914">
        <ele>162.89</ele>
        <time>2013-03-16T14:16:33.040Z</time>
      </trkpt>
      <trkpt lat="45.28352" lon="1.07909">
        <ele>163.109</ele>
        <time>2013-03-16T14:16:40.707Z</time>
      </trkpt>
      <trkpt lat="45.28361" lon="1.07907">
        <ele>163.274</ele>
        <time>2013-03-16T14:16:48.198Z</time>
      </trkpt>
      <trkpt lat="45.28371" lon="1.07905">
        <ele>163.361</ele>
        <time>2013-03-16T14:16:56.464Z</time>
      </trkpt>
      <trkpt lat="45.28381" lon="1.07902">
        <ele>163.392</ele>
        <time>2013-03-16T14:17:05.525Z</time>
      </trkpt>
      <trkpt lat="45.2839" lon="1.07898">
        <ele>163.52</ele>
        <time>2013-03-16T14:17:14.310Z</time>
      </trkpt>
      <trkpt lat="45.28399" lon="1.07896">
        <ele>163.818</ele>
        <time>2013-03-16T14:17:23.078Z</time>
      </trkpt>
      <trkpt lat="45.28408" lon="1.07893">
        <ele>164.63</ele>
        <time>2013-03-16T14:17:31.431Z</time>
      </trkpt>
      <trkpt lat="45.28417" lon="1.07889">
        <ele>166.213</ele>
        <time>2013-03-16T14:17:39.725Z</time>
      </trkpt>
      <trkpt lat="45.28426" lon="1.07887">
        <ele>167.927</ele>
        <time>2013-03-16T14:17:47.335Z</time>
      </trkpt>
      <trkpt lat="45.28426" lon="1.07887">
        <ele>168.97</ele>
        <time>2013-03-16T14:17:57.335Z</time>
      </trkpt>
      <trkpt lat="45.28416" lon="1.0789">
        <ele>169.019</ele>
        <time>2013-03-16T14:18:13.661Z</time>
      </trkpt>
      <trkpt lat="45.28407" lon="1.07894">
        <ele>168.823</ele>
        <time>2013-03-16T14:18:26.177Z</time>
      </trkpt>
      <trkpt lat="45.28398" lon="1.07896">
        <ele>168.741</ele>
        <time>2013-03-16T14:18:34.344Z</time>
      </trkpt>
      <trkpt lat="45.28388" lon="1.07899">
        <ele>168.736</ele>
        <time>2013-03-16T14:18:43.538Z</time>
      </trkpt>
      <trkpt lat="45.28378" lon="1.07902">
        <ele>168.756</ele>
        <time>2013-03-16T14:18:51.947Z</time>
      </trkpt>
      <trkpt lat="45.2837" lon="1.07906">
        <ele>168.718</ele>
        <time>2013-03-16T14:18:59.622Z</time>
      </trkpt>
      <trkpt lat="45.2836" lon="1.0791">
        <ele>168.487</ele>
        <time>2013-03-16T14:19:08.112Z</time>
      </trkpt>
      <trkpt lat="45.28351" lon="1.07913">
        <ele>168.09</ele>
        <time>2013-03-16T14:19:15.635Z</time>
      </trkpt>
      <trkpt lat="45.28341" lon="1.07914">
        <ele>167.759</ele>
        <time>2013-03-16T14:19:23.504Z</time>
      </trkpt>
      <trkpt lat="45.28332" lon="1.07917">
        <ele>167.796</ele>
        <time>2013-03-16T14:19:30.963Z</time>
      </trkpt>
      <trkpt lat="45.28322" lon="1.0792">
        <ele>168.238</ele>
        <time>2013-03-16T14:19:39.058Z</time>
      </trkpt>
      <trkpt lat="45.28312" lon="1.07925">
        <ele>168.732</ele>
        <time>2013-03-16T14:19:47.104Z</time>
      </trkpt>
      <trkpt lat="45.28303" lon="1.0793">
        <ele>168.977</ele>
        <time>2013-03-16T14:19:55.051Z</time>
      </trkpt>
      <trkpt lat="45.28295" lon="1.07937">
        <ele>169.021</ele>
        <time>2013-03-16T14:20:03.114Z</time>
      </trkpt>
      <trkpt lat="45.28287" lon="1.07944">
        <ele>168.966</ele>
        <time>2013-03-16T14:20:11.342Z</time>
      </trkpt>
      <trkpt lat="45.28287" lon="1.07944">
        <ele>168.876</ele>
        <time>2013-03-16T14:20:19.335Z</time>
      </trkpt>
      <trkpt lat="45.28286" lon="1.07929">
        <ele>168.679</ele>
        <time>2013-03-16T14:20:31.237Z</time>
      </trkpt>
      <trkpt lat="45.28277" lon="1.07922">
        <ele>168.67</ele>
        <time>2013-03-16T14:20:39.674Z</time>
      </trkpt>
      <trkpt lat="45.28268" lon="1.07922">
        <ele>168.673</ele>
        <time>2013-03-16T14:20:47.103Z</time>
      </trkpt>
      <trkpt lat="45.28258" lon="1.07921">
        <ele>168.357</ele>
        <time>2013-03-16T14:20:55.269Z</time>
      </trkpt>
      <trkpt lat="45.28248" lon="1.07918">
        <ele>167.246</ele>
        <time>2013-03-16T14:21:02.683Z</time>
      </trkpt>
      <trkpt lat="45.28238" lon="1.07918">
        <ele>165.537</ele>
        <time>2013-03-16T14:21:10.181Z</time>
      </trkpt>
      <trkpt lat="45.28229" lon="1.07916">
        <ele>164.053</ele>
        <time>2013-03-16T14:21:16.966Z</time>
      </trkpt>
      <trkpt lat="45.2822" lon="1.07915">
        <ele>163.154</ele>
        <time>2013-03-16T14:21:24.097Z</time>
      </trkpt>
      <trkpt lat="45.28211" lon="1.07912">
        <ele>162.637</ele>
        <time>2013-03-16T14:21:31.276Z</time>
      </trkpt>
      <trkpt lat="45.28201" lon="1.07913">
        <ele>162.362</ele>
        <time>2013-03-16T14:21:39.328Z</time>
      </trkpt>
      <trkpt lat="45.28191" lon="1.07909">
        <ele>162.339</ele>
        <time>2013-03-16T14:21:47.541Z</time>
      </trkpt>
      <trkpt lat="45.28182" lon="1.0791">
        <ele>162.573</ele>
        <time>2013-03-16T14:21:54.824Z</time>
      </trkpt>
      <trkpt lat="45.28173" lon="1.07912">
        <ele>163.111</ele>
        <time>2013-03-16T14:22:02.320Z</time>
      </trkpt>
      <trkpt lat="45.28164" lon="1.07917">
        <ele>163.744</ele>
        <time>2013-03-16T14:22:09.308Z</time>
      </trkpt>
      <trkpt lat="45.28155" lon="1.07923">
        <ele>164.157</ele>
        <time>2013-03-16T14:22:17.083Z</time>
      </trkpt>
      <trkpt lat="45.28147" lon="1.07931">
        <ele>164.343</ele>
        <time>2013-03-16T14:22:24.428Z</time>
      </trkpt>
      <trkpt lat="45.28139" lon="1.07938">
        <ele>164.448</ele>
        <time>2013-03-16T14:22:32.249Z</time>
      </trkpt>
      <trkpt lat="45.2813" lon="1.07944">
        <ele>164.498</ele>
        <time>2013-03-16T14:22:39.601Z</time>
      </trkpt>
      <trkpt lat="45.28122" lon="1.07951">
        <ele>164.736</ele>
        <time>2013-03-16T14:22:47.330Z</time>
      </trkpt>
      <trkpt lat="45.28114" lon="1.07959">
        <ele>165.328</ele>
        <time>2013-03-16T14:22:54.640Z</time>
      </trkpt>
      <trkpt lat="45.28107" lon="1.07965">
        <ele>165.935</ele>
        <time>2013-03-16T14:23:01.865Z</time>
      </trkpt>
      <trkpt lat="45.28097" lon="1.07971">
        <ele>166.04</ele>
        <time>2013-03-16T14:23:09.856Z</time>
      </trkpt>
      <trkpt lat="45.28088" lon="1.07976">
        <ele>165.579</ele>
        <time>2013-03-16T14:23:17.342Z</time>
      </trkpt>
      <trkpt lat="45.2808" lon="1.07983">
        <ele>164.995</ele>
        <time>2013-03-16T14:23:24.218Z</time>
      </trkpt>
      <trkpt lat="45.28072" lon="1.0799">
        <ele>164.682</ele>
        <time>2013-03-16T14:23:31.701Z</time>
      </trkpt>
      <trkpt lat="45.28062" lon="1.07992">
        <ele>164.589</ele>
        <time>2013-03-16T14:23:38.780Z</time>
      </trkpt>
      <trkpt lat="45.28053" lon="1.07992">
        <ele>164.608</ele>
        <time>2013-03-16T14:23:46.415Z</time>
      </trkpt>
      <trkpt lat="45.28044" lon="1.07998">
        <ele>164.758</ele>
        <time>2013-03-16T14:23:54.274Z</time>
      </trkpt>
      <trkpt lat="45.28044" lon="1.08011">
        <ele>164.996</ele>
        <time>2013-03-16T14:24:01.689Z</time>
      </trkpt>
      <trkpt lat="45.28044" lon="1.08026">
        <ele>165.187</ele>
        <time>2013-03-16T14:24:10.140Z</time>
      </trkpt>
      <trkpt lat="45.28045" lon="1.08041">
        <ele>164.813</ele>
        <time>2013-03-16T14:24:18.022Z</time>
      </trkpt>
      <trkpt lat="45.28045" lon="1.08054">
        <ele>163.658</ele>
        <time>2013-03-16T14:24:25.441Z</time>
      </trkpt>
      <trkpt lat="45.28046" lon="1.08067">
        <ele>162.458</ele>
        <time>2013-03-16T14:24:32.238Z</time>
      </trkpt>
      <trkpt lat="45.28043" lon="1.0808">
        <ele>161.659</ele>
        <time>2013-03-16T14:24:39.394Z</time>
      </trkpt>
      <trkpt lat="45.28041" lon="1.08093">
        <ele>160.709</ele>
        <time>2013-03-16T14:24:46.253Z</time>
      </trkpt>
      <trkpt lat="45.28039" lon="1.08107">
        <ele>159.461</ele>
        <time>2013-03-16T14:24:54.079Z</time>
      </trkpt>
      <trkpt lat="45.28045" lon="1.0812">
        <ele>158.397</ele>
        <time>2013-03-16T14:25:01.860Z</time>
      </trkpt>
      <trkpt lat="45.28049" lon="1.08131">
        <ele>157.684</ele>
        <time>2013-03-16T14:25:08.780Z</time>
      </trkpt>
      <trkpt lat="45.28055" lon="1.08142">
        <ele>157.149</ele>
        <time>2013-03-16T14:25:15.552Z</time>
      </trkpt>
      <trkpt lat="45.28059" lon="1.08154">
        <ele>156.762</ele>
        <time>2013-03-16T14:25:22.901Z</time>
      </trkpt>
      <trkpt lat="45.28063" lon="1.08167">
        <ele>156.479</ele>
        <time>2013-03-16T14:25:30.364Z</time>
      </trkpt>
      <trkpt lat="45.28068" lon="1.08178">
        <ele>155.402</ele>
        <time>2013-03-16T14:25:37.336Z</time>
      </trkpt>
      <trkpt lat="45.28068" lon="1.08178">
        <ele>153.074</ele>
        <time>2013-03-16T14:25:48.340Z</time>
      </trkpt>
      <trkpt lat="45.28072" lon="1.08196">
        <ele>149.701</ele>
        <time>2013-03-16T14:26:09.116Z</time>
      </trkpt>
      <trkpt lat="45.2808" lon="1.08203">
        <ele>149.377</ele>
        <time>2013-03-16T14:26:17.336Z</time>
      </trkpt>
      <trkpt lat="45.2808" lon="1.08203">
        <ele>149.254</ele>
        <time>2013-03-16T14:26:29.341Z</time>
      </trkpt>
      <trkpt lat="45.28093" lon="1.08212">
        <ele>149.139</ele>
        <time>2013-03-16T14:26:45.956Z</time>
      </trkpt>
      <trkpt lat="45.28102" lon="1.08215">
        <ele>149.12</ele>
        <time>2013-03-16T14:26:52.385Z</time>
      </trkpt>
      <trkpt lat="45.28111" lon="1.08221">
        <ele>149.087</ele>
        <time>2013-03-16T14:26:58.341Z</time>
      </trkpt>
      <trkpt lat="45.28111" lon="1.08221">
        <ele>149.026</ele>
        <time>2013-03-16T14:27:08.337Z</time>
      </trkpt>
      <trkpt lat="45.28124" lon="1.08228">
        <ele>148.916</ele>
        <time>2013-03-16T14:27:34.042Z</time>
      </trkpt>
      <trkpt lat="45.28133" lon="1.08234">
        <ele>148.904</ele>
        <time>2013-03-16T14:27:53.454Z</time>
      </trkpt>
      <trkpt lat="45.28142" lon="1.0824">
        <ele>148.907</ele>
        <time>2013-03-16T14:28:11.969Z</time>
      </trkpt>
      <trkpt lat="45.28151" lon="1.08248">
        <ele>148.912</ele>
        <time>2013-03-16T14:28:30.833Z</time>
      </trkpt>
      <trkpt lat="45.28158" lon="1.08257">
        <ele>149.378</ele>
        <time>2013-03-16T14:28:48.684Z</time>
      </trkpt>
      <trkpt lat="45.28161" lon="1.0827">
        <ele>150.585</ele>
        <time>2013-03-16T14:29:06.584Z</time>
      </trkpt>
      <trkpt lat="45.28162" lon="1.08286">
        <ele>151.822</ele>
        <time>2013-03-16T14:29:23.888Z</time>
      </trkpt>
      <trkpt lat="45.28162" lon="1.083">
        <ele>152.409</ele>
        <time>2013-03-16T14:29:32.471Z</time>
      </trkpt>
      <trkpt lat="45.28163" lon="1.08312">
        <ele>152.353</ele>
        <time>2013-03-16T14:29:40.568Z</time>
      </trkpt>
      <trkpt lat="45.28164" lon="1.08327">
        <ele>151.835</ele>
        <time>2013-03-16T14:29:49.750Z</time>
      </trkpt>
      <trkpt lat="45.28165" lon="1.0834">
        <ele>151.237</ele>
        <time>2013-03-16T14:29:58.140Z</time>
      </trkpt>
      <trkpt lat="45.28169" lon="1.08352">
        <ele>150.892</ele>
        <time>2013-03-16T14:30:06.555Z</time>
      </trkpt>
      <trkpt lat="45.28173" lon="1.08364">
        <ele>150.803</ele>
        <time>2013-03-16T14:30:14.687Z</time>
      </trkpt>
      <trkpt lat="45.28183" lon="1.08366">
        <ele>150.691</ele>
        <time>2013-03-16T14:30:23.276Z</time>
      </trkpt>
      <trkpt lat="45.28192" lon="1.08364">
        <ele>150.305</ele>
        <time>2013-03-16T14:30:32.002Z</time>
      </trkpt>
      <trkpt lat="45.28202" lon="1.08363">
        <ele>149.666</ele>
        <time>2013-03-16T14:30:40.816Z</time>
      </trkpt>
      <trkpt lat="45.2821" lon="1.08359">
        <ele>149.011</ele>
        <time>2013-03-16T14:30:49.245Z</time>
      </trkpt>
      <trkpt lat="45.28219" lon="1.08355">
        <ele>148.106</ele>
        <time>2013-03-16T14:30:58.270Z</time>
      </trkpt>
      <trkpt lat="45.28229" lon="1.08352">
        <ele>146.734</ele>
        <time>2013-03-16T14:31:07.468Z</time>
      </trkpt>
      <trkpt lat="45.28239" lon="1.08351">
        <ele>145.486</ele>
        <time>2013-03-16T14:31:17.563Z</time>
      </trkpt>
      <trkpt lat="45.28248" lon="1.08346">
        <ele>145.409</ele>
        <time>2013-03-16T14:31:26.726Z</time>
      </trkpt>
      <trkpt lat="45.28257" lon="1.08346">
        <ele>146.579</ele>
        <time>2013-03-16T14:31:35.777Z</time>
      </trkpt>
      <trkpt lat="45.28267" lon="1.08348">
        <ele>147.951</ele>
        <time>2013-03-16T14:31:46.128Z</time>
      </trkpt>
      <trkpt lat="45.28276" lon="1.08345">
        <ele>148.681</ele>
        <time>2013-03-16T14:31:55.965Z</time>
      </trkpt>
      <trkpt lat="45.28286" lon="1.08345">
        <ele>148.898</ele>
        <time>2013-03-16T14:32:05.697Z</time>
      </trkpt>
      <trkpt lat="45.28296" lon="1.08347">
        <ele>148.884</ele>
        <time>2013-03-16T14:32:16.418Z</time>
      </trkpt>
      <trkpt lat="45.28305" lon="1.08348">
        <ele>148.791</ele>
        <time>2013-03-16T14:32:26.226Z</time>
      </trkpt>
      <trkpt lat="45.28314" lon="1.08352">
        <ele>148.685</ele>
        <time>2013-03-16T14:32:36.340Z</time>
      </trkpt>
      <trkpt lat="45.28314" lon="1.08352">
        <ele>148.611</ele>
        <time>2013-03-16T14:32:42.342Z</time>
      </trkpt>
      <trkpt lat="45.28326" lon="1.08355">
        <ele>148.508</ele>
        <time>2013-03-16T14:32:55.074Z</time>
      </trkpt>
      <trkpt lat="45.28335" lon="1.0836">
        <ele>148.472</ele>
        <time>2013-03-16T14:33:02.236Z</time>
      </trkpt>
      <trkpt lat="45.28345" lon="1.08362">
        <ele>148.445</ele>
        <time>2013-03-16T14:33:09.822Z</time>
      </trkpt>
      <trkpt lat="45.28355" lon="1.08363">
        <ele>148.435</ele>
        <time>2013-03-16T14:33:16.623Z</time>
      </trkpt>
      <trkpt lat="45.28365" lon="1.08362">
        <ele>148.17</ele>
        <time>2013-03-16T14:33:23.832Z</time>
      </trkpt>
      <trkpt lat="45.28374" lon="1.0836">
        <ele>147.44</ele>
        <time>2013-03-16T14:33:30.319Z</time>
      </trkpt>
      <trkpt lat="45.28384" lon="1.0836">
        <ele>146.47</ele>
        <time>2013-03-16T14:33:37.732Z</time>
      </trkpt>
      <trkpt lat="45.28394" lon="1.08359">
        <ele>145.606</ele>
        <time>2013-03-16T14:33:44.902Z</time>
      </trkpt>
      <trkpt lat="45.28403" lon="1.08359">
        <ele>145.008</ele>
        <time>2013-03-16T14:33:51.355Z</time>
      </trkpt>
      <trkpt lat="45.28413" lon="1.08356">
        <ele>144.656</ele>
        <time>2013-03-16T14:33:58.832Z</time>
      </trkpt>
      <trkpt lat="45.28423" lon="1.08352">
        <ele>144.123</ele>
        <time>2013-03-16T14:34:06.267Z</time>
      </trkpt>
      <trkpt lat="45.28433" lon="1.08348">
        <ele>143.216</ele>
        <time>2013-03-16T14:34:13.536Z</time>
      </trkpt>
      <trkpt lat="45.28443" lon="1.08347">
        <ele>142.39</ele>
        <time>2013-03-16T14:34:20.768Z</time>
      </trkpt>
      <trkpt lat="45.28453" lon="1.08344">
        <ele>142.027</ele>
        <time>2013-03-16T14:34:28.472Z</time>
      </trkpt>
      <trkpt lat="45.28462" lon="1.08342">
        <ele>141.989</ele>
        <time>2013-03-16T14:34:35.571Z</time>
      </trkpt>
      <trkpt lat="45.28471" lon="1.08343">
        <ele>142.064</ele>
        <time>2013-03-16T14:34:43.176Z</time>
      </trkpt>
      <trkpt lat="45.28481" lon="1.08344">
        <ele>142.267</ele>
        <time>2013-03-16T14:34:50.911Z</time>
      </trkpt>
      <trkpt lat="45.2849" lon="1.08343">
        <ele>142.648</ele>
        <time>2013-03-16T14:34:58.172Z</time>
      </trkpt>
      <trkpt lat="45.28499" lon="1.08344">
        <ele>143.013</ele>
        <time>2013-03-16T14:35:05.496Z</time>
      </trkpt>
      <trkpt lat="45.2851" lon="1.08345">
        <ele>143.001</ele>
        <time>2013-03-16T14:35:13.912Z</time>
      </trkpt>
      <trkpt lat="45.28519" lon="1.08346">
        <ele>142.413</ele>
        <time>2013-03-16T14:35:20.680Z</time>
      </trkpt>
      <trkpt lat="45.2853" lon="1.08349">
        <ele>141.527</ele>
        <time>2013-03-16T14:35:29.043Z</time>
      </trkpt>
      <trkpt lat="45.2854" lon="1.08351">
        <ele>140.852</ele>
        <time>2013-03-16T14:35:35.944Z</time>
      </trkpt>
      <trkpt lat="45.2855" lon="1.08352">
        <ele>140.54</ele>
        <time>2013-03-16T14:35:42.648Z</time>
      </trkpt>
      <trkpt lat="45.28559" lon="1.08353">
        <ele>140.498</ele>
        <time>2013-03-16T14:35:48.840Z</time>
      </trkpt>
      <trkpt lat="45.28568" lon="1.08356">
        <ele>140.612</ele>
        <time>2013-03-16T14:35:55.413Z</time>
      </trkpt>
      <trkpt lat="45.28578" lon="1.08359">
        <ele>140.74</ele>
        <time>2013-03-16T14:36:02.604Z</time>
      </trkpt>
      <trkpt lat="45.28588" lon="1.08362">
        <ele>141.036</ele>
        <time>2013-03-16T14:36:09.701Z</time>
      </trkpt>
      <trkpt lat="45.28598" lon="1.08364">
        <ele>141.651</ele>
        <time>2013-03-16T14:36:16.107Z</time>
      </trkpt>
      <trkpt lat="45.28608" lon="1.08366">
        <ele>142.482</ele>
        <time>2013-03-16T14:36:22.940Z</time>
      </trkpt>
      <trkpt lat="45.28617" lon="1.08368">
        <ele>143.341</ele>
        <time>2013-03-16T14:36:29.755Z</time>
      </trkpt>
      <trkpt lat="45.28627" lon="1.08371">
        <ele>143.972</ele>
        <time>2013-03-16T14:36:36.768Z</time>
      </trkpt>
      <trkpt lat="45.28636" lon="1.08374">
        <ele>144.205</ele>
        <time>2013-03-16T14:36:43.150Z</time>
      </trkpt>
      <trkpt lat="45.28645" lon="1.08377">
        <ele>144.207</ele>
        <time>2013-03-16T14:36:49.827Z</time>
      </trkpt>
      <trkpt lat="45.28655" lon="1.08378">
        <ele>144.152</ele>
        <time>2013-03-16T14:36:56.960Z</time>
      </trkpt>
      <trkpt lat="45.28664" lon="1.08381">
        <ele>144.116</ele>
        <time>2013-03-16T14:37:03.728Z</time>
      </trkpt>
      <trkpt lat="45.28673" lon="1.08383">
        <ele>144.098</ele>
        <time>2013-03-16T14:37:10.352Z</time>
      </trkpt>
      <trkpt lat="45.28683" lon="1.08387">
        <ele>143.945</ele>
        <time>2013-03-16T14:37:17.708Z</time>
      </trkpt>
      <trkpt lat="45.28693" lon="1.08388">
        <ele>143.712</ele>
        <time>2013-03-16T14:37:25.518Z</time>
      </trkpt>
      <trkpt lat="45.28702" lon="1.08389">
        <ele>143.709</ele>
        <time>2013-03-16T14:37:33.341Z</time>
      </trkpt>
      <trkpt lat="45.28702" lon="1.08389">
        <ele>143.93</ele>
        <time>2013-03-16T14:37:44.339Z</time>
      </trkpt>
      <trkpt lat="45.28722" lon="1.08393">
        <ele>144.08</ele>
        <time>2013-03-16T14:38:18.841Z</time>
      </trkpt>
      <trkpt lat="45.28732" lon="1.08394">
        <ele>144.193</ele>
        <time>2013-03-16T14:38:26.978Z</time>
      </trkpt>
      <trkpt lat="45.28742" lon="1.08395">
        <ele>144.64</ele>
        <time>2013-03-16T14:38:34.475Z</time>
      </trkpt>
      <trkpt lat="45.28751" lon="1.08398">
        <ele>145.178</ele>
        <time>2013-03-16T14:38:41.448Z</time>
      </trkpt>
      <trkpt lat="45.2876" lon="1.08399">
        <ele>145.126</ele>
        <time>2013-03-16T14:38:48.233Z</time>
      </trkpt>
      <trkpt lat="45.28769" lon="1.084">
        <ele>144.862</ele>
        <time>2013-03-16T14:38:55.532Z</time>
      </trkpt>
      <trkpt lat="45.2878" lon="1.08402">
        <ele>145.315</ele>
        <time>2013-03-16T14:39:03.552Z</time>
      </trkpt>
      <trkpt lat="45.2879" lon="1.08404">
        <ele>146.283</ele>
        <time>2013-03-16T14:39:11.425Z</time>
      </trkpt>
      <trkpt lat="45.28799" lon="1.08404">
        <ele>147.139</ele>
        <time>2013-03-16T14:39:18.633Z</time>
      </trkpt>
      <trkpt lat="45.2881" lon="1.08401">
        <ele>147.363</ele>
        <time>2013-03-16T14:39:26.846Z</time>
      </trkpt>
      <trkpt lat="45.28818" lon="1.08393">
        <ele>147.129</ele>
        <time>2013-03-16T14:39:34.341Z</time>
      </trkpt>
      <trkpt lat="45.28818" lon="1.08393">
        <ele>147.251</ele>
        <time>2013-03-16T14:39:46.342Z</time>
      </trkpt>
      <trkpt lat="45.28826" lon="1.0838">
        <ele>147.572</ele>
        <time>2013-03-16T14:39:58.222Z</time>
      </trkpt>
      <trkpt lat="45.28834" lon="1.08372">
        <ele>147.301</ele>
        <time>2013-03-16T14:40:04.822Z</time>
      </trkpt>
      <trkpt lat="45.28843" lon="1.08372">
        <ele>147.699</ele>
        <time>2013-03-16T14:40:10.990Z</time>
      </trkpt>
      <trkpt lat="45.28852" lon="1.08376">
        <ele>149.239</ele>
        <time>2013-03-16T14:40:17.312Z</time>
      </trkpt>
      <trkpt lat="45.28862" lon="1.0838">
        <ele>151.269</ele>
        <time>2013-03-16T14:40:24.624Z</time>
      </trkpt>
      <trkpt lat="45.28872" lon="1.08386">
        <ele>153.043</ele>
        <time>2013-03-16T14:40:31.864Z</time>
      </trkpt>
      <trkpt lat="45.28881" lon="1.08389">
        <ele>154.296</ele>
        <time>2013-03-16T14:40:38.340Z</time>
      </trkpt>
      <trkpt lat="45.28881" lon="1.08389">
        <ele>154.859</ele>
        <time>2013-03-16T14:40:49.347Z</time>
      </trkpt>
      <trkpt lat="45.28892" lon="1.084">
        <ele>154.781</ele>
        <time>2013-03-16T14:41:08.004Z</time>
      </trkpt>
      <trkpt lat="45.28901" lon="1.08405">
        <ele>154.837</ele>
        <time>2013-03-16T14:41:15.143Z</time>
      </trkpt>
      <trkpt lat="45.2891" lon="1.08403">
        <ele>155.21</ele>
        <time>2013-03-16T14:41:21.633Z</time>
      </trkpt>
      <trkpt lat="45.28919" lon="1.08401">
        <ele>156.138</ele>
        <time>2013-03-16T14:41:28.110Z</time>
      </trkpt>
      <trkpt lat="45.2893" lon="1.08399">
        <ele>157.691</ele>
        <time>2013-03-16T14:41:35.346Z</time>
      </trkpt>
      <trkpt lat="45.28939" lon="1.08399">
        <ele>159.203</ele>
        <time>2013-03-16T14:41:41.683Z</time>
      </trkpt>
      <trkpt lat="45.28949" lon="1.084">
        <ele>160.042</ele>
        <time>2013-03-16T14:41:47.973Z</time>
      </trkpt>
      <trkpt lat="45.28958" lon="1.08405">
        <ele>160.458</ele>
        <time>2013-03-16T14:41:54.299Z</time>
      </trkpt>
      <trkpt lat="45.28967" lon="1.08406">
        <ele>160.808</ele>
        <time>2013-03-16T14:42:00.346Z</time>
      </trkpt>
      <trkpt lat="45.28967" lon="1.08406">
        <ele>161.101</ele>
        <time>2013-03-16T14:42:11.346Z</time>
      </trkpt>
      <trkpt lat="45.28978" lon="1.08409">
        <ele>161.061</ele>
        <time>2013-03-16T14:42:32.154Z</time>
      </trkpt>
      <trkpt lat="45.28986" lon="1.08415">
        <ele>160.565</ele>
        <time>2013-03-16T14:42:50.264Z</time>
      </trkpt>
      <trkpt lat="45.28996" lon="1.08414">
        <ele>159.633</ele>
        <time>2013-03-16T14:43:06.125Z</time>
      </trkpt>
      <trkpt lat="45.29005" lon="1.08417">
        <ele>158.701</ele>
        <time>2013-03-16T14:43:15.551Z</time>
      </trkpt>
      <trkpt lat="45.29015" lon="1.0842">
        <ele>158.208</ele>
        <time>2013-03-16T14:43:25.667Z</time>
      </trkpt>
      <trkpt lat="45.29024" lon="1.08423">
        <ele>158.102</ele>
        <time>2013-03-16T14:43:34.065Z</time>
      </trkpt>
      <trkpt lat="45.29033" lon="1.08427">
        <ele>158.164</ele>
        <time>2013-03-16T14:43:42.247Z</time>
      </trkpt>
      <trkpt lat="45.29042" lon="1.08431">
        <ele>158.265</ele>
        <time>2013-03-16T14:43:49.632Z</time>
      </trkpt>
      <trkpt lat="45.2905" lon="1.08432">
        <ele>158.416</ele>
        <time>2013-03-16T14:43:56.817Z</time>
      </trkpt>
      <trkpt lat="45.2906" lon="1.08436">
        <ele>158.611</ele>
        <time>2013-03-16T14:44:04.625Z</time>
      </trkpt>
      <trkpt lat="45.2907" lon="1.08436">
        <ele>158.761</ele>
        <time>2013-03-16T14:44:13.110Z</time>
      </trkpt>
      <trkpt lat="45.2908" lon="1.08436">
        <ele>158.817</ele>
        <time>2013-03-16T14:44:20.803Z</time>
      </trkpt>
      <trkpt lat="45.29089" lon="1.08439">
        <ele>158.802</ele>
        <time>2013-03-16T14:44:28.483Z</time>
      </trkpt>
      <trkpt lat="45.29098" lon="1.08439">
        <ele>158.747</ele>
        <time>2013-03-16T14:44:35.992Z</time>
      </trkpt>
      <trkpt lat="45.29107" lon="1.08436">
        <ele>158.491</ele>
        <time>2013-03-16T14:44:43.530Z</time>
      </trkpt>
      <trkpt lat="45.29116" lon="1.08431">
        <ele>157.824</ele>
        <time>2013-03-16T14:44:51.274Z</time>
      </trkpt>
      <trkpt lat="45.29123" lon="1.08421">
        <ele>157.095</ele>
        <time>2013-03-16T14:44:59.590Z</time>
      </trkpt>
      <trkpt lat="45.29128" lon="1.0841">
        <ele>156.392</ele>
        <time>2013-03-16T14:45:07.308Z</time>
      </trkpt>
      <trkpt lat="45.29135" lon="1.08402">
        <ele>155.156</ele>
        <time>2013-03-16T14:45:14.889Z</time>
      </trkpt>
      <trkpt lat="45.29142" lon="1.08395">
        <ele>153.596</ele>
        <time>2013-03-16T14:45:22.350Z</time>
      </trkpt>
      <trkpt lat="45.29142" lon="1.08395">
        <ele>152.566</ele>
        <time>2013-03-16T14:45:33.342Z</time>
      </trkpt>
      <trkpt lat="45.29155" lon="1.08381">
        <ele>152.37</ele>
        <time>2013-03-16T14:45:47.330Z</time>
      </trkpt>
      <trkpt lat="45.29162" lon="1.08372">
        <ele>152.829</ele>
        <time>2013-03-16T14:45:53.961Z</time>
      </trkpt>
      <trkpt lat="45.29169" lon="1.08362">
        <ele>154.074</ele>
        <time>2013-03-16T14:46:00.902Z</time>
      </trkpt>
      <trkpt lat="45.29172" lon="1.08348">
        <ele>156.461</ele>
        <time>2013-03-16T14:46:08.663Z</time>
      </trkpt>
      <trkpt lat="45.29162" lon="1.08347">
        <ele>159.886</ele>
        <time>2013-03-16T14:46:15.972Z</time>
      </trkpt>
      <trkpt lat="45.29153" lon="1.08356">
        <ele>163.821</ele>
        <time>2013-03-16T14:46:24.504Z</time>
      </trkpt>
      <trkpt lat="45.29142" lon="1.08361">
        <ele>167.175</ele>
        <time>2013-03-16T14:46:32.947Z</time>
      </trkpt>
      <trkpt lat="45.29134" lon="1.08355">
        <ele>170.382</ele>
        <time>2013-03-16T14:46:40.820Z</time>
      </trkpt>
      <trkpt lat="45.29124" lon="1.08347">
        <ele>174.532</ele>
        <time>2013-03-16T14:46:51.288Z</time>
      </trkpt>
      <trkpt lat="45.29115" lon="1.0834">
        <ele>178.101</ele>
        <time>2013-03-16T14:47:00.691Z</time>
      </trkpt>
      <trkpt lat="45.29108" lon="1.08331">
        <ele>179.613</ele>
        <time>2013-03-16T14:47:09.765Z</time>
      </trkpt>
      <trkpt lat="45.29104" lon="1.08318">
        <ele>179.733</ele>
        <time>2013-03-16T14:47:18.699Z</time>
      </trkpt>
      <trkpt lat="45.29102" lon="1.08305">
        <ele>179.393</ele>
        <time>2013-03-16T14:47:27.107Z</time>
      </trkpt>
      <trkpt lat="45.29098" lon="1.08292">
        <ele>179.278</ele>
        <time>2013-03-16T14:47:36.243Z</time>
      </trkpt>
      <trkpt lat="45.29088" lon="1.08289">
        <ele>179.672</ele>
        <time>2013-03-16T14:47:45.387Z</time>
      </trkpt>
      <trkpt lat="45.29078" lon="1.08285">
        <ele>180.42</ele>
        <time>2013-03-16T14:47:55.339Z</time>
      </trkpt>
      <trkpt lat="45.29069" lon="1.08277">
        <ele>181.584</ele>
        <time>2013-03-16T14:48:04.511Z</time>
      </trkpt>
      <trkpt lat="45.2906" lon="1.08273">
        <ele>183.39</ele>
        <time>2013-03-16T14:48:13.032Z</time>
      </trkpt>
      <trkpt lat="45.29051" lon="1.08268">
        <ele>185.332</ele>
        <time>2013-03-16T14:48:21.619Z</time>
      </trkpt>
      <trkpt lat="45.2905" lon="1.08255">
        <ele>186.76</ele>
        <time>2013-03-16T14:48:29.681Z</time>
      </trkpt>
      <trkpt lat="45.29051" lon="1.08242">
        <ele>187.614</ele>
        <time>2013-03-16T14:48:38.311Z</time>
      </trkpt>
      <trkpt lat="45.29054" lon="1.08228">
        <ele>187.962</ele>
        <time>2013-03-16T14:48:47.376Z</time>
      </trkpt>
      <trkpt lat="45.29056" lon="1.08215">
        <ele>187.807</ele>
        <time>2013-03-16T14:48:55.929Z</time>
      </trkpt>
      <trkpt lat="45.29059" lon="1.08201">
        <ele>187.472</ele>
        <time>2013-03-16T14:49:04.364Z</time>
      </trkpt>
      <trkpt lat="45.29059" lon="1.08201">
        <ele>187.294</ele>
        <time>2013-03-16T14:49:15.350Z</time>
      </trkpt>
      <trkpt lat="45.29059" lon="1.08183">
        <ele>187.226</ele>
        <time>2013-03-16T14:49:28.567Z</time>
      </trkpt>
      <trkpt lat="45.2906" lon="1.08168">
        <ele>187.186</ele>
        <time>2013-03-16T14:49:35.964Z</time>
      </trkpt>
      <trkpt lat="45.29059" lon="1.08155">
        <ele>187.188</ele>
        <time>2013-03-16T14:49:42.759Z</time>
      </trkpt>
      <trkpt lat="45.29055" lon="1.08143">
        <ele>187.325</ele>
        <time>2013-03-16T14:49:49.796Z</time>
      </trkpt>
      <trkpt lat="45.29051" lon="1.0813">
        <ele>187.614</ele>
        <time>2013-03-16T14:49:56.922Z</time>
      </trkpt>
      <trkpt lat="45.29048" lon="1.08117">
        <ele>188.051</ele>
        <time>2013-03-16T14:50:03.883Z</time>
      </trkpt>
      <trkpt lat="45.29043" lon="1.08104">
        <ele>188.592</ele>
        <time>2013-03-16T14:50:11.348Z</time>
      </trkpt>
      <trkpt lat="45.29038" lon="1.08093">
        <ele>189.034</ele>
        <time>2013-03-16T14:50:18.041Z</time>
      </trkpt>
      <trkpt lat="45.29036" lon="1.0808">
        <ele>189.069</ele>
        <time>2013-03-16T14:50:24.899Z</time>
      </trkpt>
      <trkpt lat="45.29033" lon="1.08067">
        <ele>188.705</ele>
        <time>2013-03-16T14:50:32.103Z</time>
      </trkpt>
      <trkpt lat="45.29034" lon="1.08051">
        <ele>188.278</ele>
        <time>2013-03-16T14:50:40.740Z</time>
      </trkpt>
      <trkpt lat="45.29034" lon="1.08037">
        <ele>188.042</ele>
        <time>2013-03-16T14:50:47.652Z</time>
      </trkpt>
      <trkpt lat="45.29036" lon="1.08025">
        <ele>187.862</ele>
        <time>2013-03-16T14:50:54.218Z</time>
      </trkpt>
      <trkpt lat="45.29034" lon="1.08011">
        <ele>187.701</ele>
        <time>2013-03-16T14:51:01.391Z</time>
      </trkpt>
      <trkpt lat="45.29031" lon="1.07999">
        <ele>187.724</ele>
        <time>2013-03-16T14:51:07.716Z</time>
      </trkpt>
      <trkpt lat="45.29028" lon="1.07985">
        <ele>187.963</ele>
        <time>2013-03-16T14:51:14.551Z</time>
      </trkpt>
      <trkpt lat="45.29023" lon="1.07973">
        <ele>188.25</ele>
        <time>2013-03-16T14:51:21.258Z</time>
      </trkpt>
      <trkpt lat="45.2902" lon="1.07961">
        <ele>188.411</ele>
        <time>2013-03-16T14:51:27.552Z</time>
      </trkpt>
      <trkpt lat="45.29017" lon="1.07947">
        <ele>188.419</ele>
        <time>2013-03-16T14:51:34.349Z</time>
      </trkpt>
      <trkpt lat="45.29017" lon="1.07947">
        <ele>188.41</ele>
        <time>2013-03-16T14:51:46.350Z</time>
      </trkpt>
      <trkpt lat="45.29019" lon="1.07934">
        <ele>188.239</ele>
        <time>2013-03-16T14:52:06.738Z</time>
      </trkpt>
      <trkpt lat="45.29022" lon="1.0792">
        <ele>188.191</ele>
        <time>2013-03-16T14:52:26.504Z</time>
      </trkpt>
      <trkpt lat="45.29024" lon="1.07907">
        <ele>188.449</ele>
        <time>2013-03-16T14:52:44.643Z</time>
      </trkpt>
      <trkpt lat="45.29028" lon="1.07893">
        <ele>189.31</ele>
        <time>2013-03-16T14:52:55.178Z</time>
      </trkpt>
      <trkpt lat="45.2903" lon="1.0788">
        <ele>190.666</ele>
        <time>2013-03-16T14:53:05.184Z</time>
      </trkpt>
      <trkpt lat="45.29031" lon="1.07867">
        <ele>192.043</ele>
        <time>2013-03-16T14:53:15.882Z</time>
      </trkpt>
      <trkpt lat="45.29031" lon="1.07853">
        <ele>193.038</ele>
        <time>2013-03-16T14:53:26.033Z</time>
      </trkpt>
      <trkpt lat="45.29033" lon="1.0784">
        <ele>193.548</ele>
        <time>2013-03-16T14:53:35.789Z</time>
      </trkpt>
      <trkpt lat="45.29035" lon="1.07828">
        <ele>193.783</ele>
        <time>2013-03-16T14:53:45.277Z</time>
      </trkpt>
      <trkpt lat="45.29038" lon="1.07812">
        <ele>194.396</ele>
        <time>2013-03-16T14:53:57.445Z</time>
      </trkpt>
      <trkpt lat="45.29041" lon="1.07799">
        <ele>195.802</ele>
        <time>2013-03-16T14:54:07.490Z</time>
      </trkpt>
      <trkpt lat="45.29035" lon="1.07788">
        <ele>197.318</ele>
        <time>2013-03-16T14:54:17.846Z</time>
      </trkpt>
      <trkpt lat="45.29028" lon="1.07779">
        <ele>198.151</ele>
        <time>2013-03-16T14:54:27.841Z</time>
      </trkpt>
      <trkpt lat="45.29022" lon="1.0777">
        <ele>198.345</ele>
        <time>2013-03-16T14:54:37.462Z</time>
      </trkpt>
      <trkpt lat="45.29013" lon="1.07765">
        <ele>198.254</ele>
        <time>2013-03-16T14:54:47.442Z</time>
      </trkpt>
      <trkpt lat="45.29003" lon="1.07767">
        <ele>198.178</ele>
        <time>2013-03-16T14:54:57.362Z</time>
      </trkpt>
      <trkpt lat="45.29003" lon="1.07767">
        <ele>198.17</ele>
        <time>2013-03-16T14:55:15.352Z</time>
      </trkpt>
      <trkpt lat="45.28997" lon="1.07777">
        <ele>197.942</ele>
        <time>2013-03-16T14:55:34.007Z</time>
      </trkpt>
      <trkpt lat="45.28997" lon="1.07794">
        <ele>197.923</ele>
        <time>2013-03-16T14:55:55.319Z</time>
      </trkpt>
      <trkpt lat="45.28996" lon="1.07807">
        <ele>197.928</ele>
        <time>2013-03-16T14:56:04.336Z</time>
      </trkpt>
      <trkpt lat="45.29001" lon="1.0782">
        <ele>196.85</ele>
        <time>2013-03-16T14:56:14.241Z</time>
      </trkpt>
      <trkpt lat="45.29009" lon="1.07828">
        <ele>194.025</ele>
        <time>2013-03-16T14:56:23.499Z</time>
      </trkpt>
      <trkpt lat="45.29017" lon="1.07834">
        <ele>191.122</ele>
        <time>2013-03-16T14:56:32.153Z</time>
      </trkpt>
      <trkpt lat="45.29026" lon="1.07838">
        <ele>189.632</ele>
        <time>2013-03-16T14:56:40.786Z</time>
      </trkpt>
      <trkpt lat="45.29032" lon="1.07827">
        <ele>189.134</ele>
        <time>2013-03-16T14:56:49.764Z</time>
      </trkpt>
      <trkpt lat="45.29034" lon="1.07814">
        <ele>189.4</ele>
        <time>2013-03-16T14:56:58.355Z</time>
      </trkpt>
      <trkpt lat="45.29034" lon="1.07814">
        <ele>190.351</ele>
        <time>2013-03-16T14:57:09.358Z</time>
      </trkpt>
      <trkpt lat="45.29036" lon="1.07802">
        <ele>191.86</ele>
        <time>2013-03-16T14:57:22.104Z</time>
      </trkpt>
      <trkpt lat="45.29043" lon="1.07793">
        <ele>192.147</ele>
        <time>2013-03-16T14:57:30.874Z</time>
      </trkpt>
      <trkpt lat="45.29037" lon="1.07783">
        <ele>192.787</ele>
        <time>2013-03-16T14:57:39.455Z</time>
      </trkpt>
      <trkpt lat="45.29029" lon="1.07774">
        <ele>194.518</ele>
        <time>2013-03-16T14:57:49.344Z</time>
      </trkpt>
      <trkpt lat="45.29021" lon="1.07766">
        <ele>196.984</ele>
        <time>2013-03-16T14:57:58.499Z</time>
      </trkpt>
      <trkpt lat="45.29012" lon="1.07763">
        <ele>199.014</ele>
        <time>2013-03-16T14:58:08.556Z</time>
      </trkpt>
      <trkpt lat="45.29001" lon="1.07764">
        <ele>200.111</ele>
        <time>2013-03-16T14:58:19.355Z</time>
      </trkpt>
      <trkpt lat="45.29001" lon="1.07764">
        <ele>200.463</ele>
        <time>2013-03-16T14:58:20.354Z</time>
      </trkpt>
      <trkpt lat="45.28998" lon="1.0775">
        <ele>200.224</ele>
        <time>2013-03-16T14:58:30.804Z</time>
      </trkpt>
      <trkpt lat="45.28998" lon="1.07736">
        <ele>200.145</ele>
        <time>2013-03-16T14:58:37.548Z</time>
      </trkpt>
      <trkpt lat="45.28998" lon="1.07721">
        <ele>199.924</ele>
        <time>2013-03-16T14:58:44.440Z</time>
      </trkpt>
      <trkpt lat="45.28996" lon="1.07708">
        <ele>199.324</ele>
        <time>2013-03-16T14:58:50.591Z</time>
      </trkpt>
      <trkpt lat="45.28995" lon="1.07694">
        <ele>198.024</ele>
        <time>2013-03-16T14:58:56.944Z</time>
      </trkpt>
      <trkpt lat="45.29001" lon="1.07685">
        <ele>196.216</ele>
        <time>2013-03-16T14:59:03.062Z</time>
      </trkpt>
      <trkpt lat="45.29008" lon="1.07674">
        <ele>194.741</ele>
        <time>2013-03-16T14:59:09.667Z</time>
      </trkpt>
      <trkpt lat="45.29015" lon="1.07667">
        <ele>194.147</ele>
        <time>2013-03-16T14:59:15.959Z</time>
      </trkpt>
      <trkpt lat="45.29023" lon="1.07659">
        <ele>194.218</ele>
        <time>2013-03-16T14:59:22.381Z</time>
      </trkpt>
      <trkpt lat="45.29031" lon="1.07651">
        <ele>194.752</ele>
        <time>2013-03-16T14:59:29.538Z</time>
      </trkpt>
      <trkpt lat="45.29038" lon="1.07641">
        <ele>195.614</ele>
        <time>2013-03-16T14:59:37.019Z</time>
      </trkpt>
      <trkpt lat="45.29046" lon="1.07633">
        <ele>196.369</ele>
        <time>2013-03-16T14:59:44.677Z</time>
      </trkpt>
      <trkpt lat="45.29054" lon="1.07624">
        <ele>196.692</ele>
        <time>2013-03-16T14:59:52.244Z</time>
      </trkpt>
      <trkpt lat="45.2906" lon="1.07615">
        <ele>196.445</ele>
        <time>2013-03-16T14:59:59.245Z</time>
      </trkpt>
      <trkpt lat="45.29066" lon="1.07604">
        <ele>195.573</ele>
        <time>2013-03-16T15:00:06.529Z</time>
      </trkpt>
      <trkpt lat="45.29072" lon="1.07594">
        <ele>194.493</ele>
        <time>2013-03-16T15:00:13.602Z</time>
      </trkpt>
      <trkpt lat="45.29077" lon="1.07581">
        <ele>193.592</ele>
        <time>2013-03-16T15:00:21.532Z</time>
      </trkpt>
      <trkpt lat="45.29081" lon="1.07568">
        <ele>193.043</ele>
        <time>2013-03-16T15:00:29.099Z</time>
      </trkpt>
      <trkpt lat="45.29085" lon="1.07556">
        <ele>192.763</ele>
        <time>2013-03-16T15:00:35.706Z</time>
      </trkpt>
      <trkpt lat="45.29087" lon="1.07543">
        <ele>192.332</ele>
        <time>2013-03-16T15:00:42.490Z</time>
      </trkpt>
      <trkpt lat="45.2909" lon="1.07529">
        <ele>191.637</ele>
        <time>2013-03-16T15:00:49.631Z</time>
      </trkpt>
      <trkpt lat="45.29093" lon="1.07516">
        <ele>191.1</ele>
        <time>2013-03-16T15:00:56.794Z</time>
      </trkpt>
      <trkpt lat="45.29098" lon="1.07504">
        <ele>190.882</ele>
        <time>2013-03-16T15:01:03.353Z</time>
      </trkpt>
      <trkpt lat="45.29098" lon="1.07504">
        <ele>190.799</ele>
        <time>2013-03-16T15:01:13.353Z</time>
      </trkpt>
      <trkpt lat="45.29105" lon="1.07489">
        <ele>190.652</ele>
        <time>2013-03-16T15:01:25.084Z</time>
      </trkpt>
      <trkpt lat="45.29109" lon="1.07476">
        <ele>190.608</ele>
        <time>2013-03-16T15:01:32.178Z</time>
      </trkpt>
      <trkpt lat="45.29113" lon="1.07463">
        <ele>190.494</ele>
        <time>2013-03-16T15:01:39.431Z</time>
      </trkpt>
      <trkpt lat="45.29117" lon="1.0745">
        <ele>190.256</ele>
        <time>2013-03-16T15:01:46.275Z</time>
      </trkpt>
      <trkpt lat="45.2912" lon="1.07437">
        <ele>190.013</ele>
        <time>2013-03-16T15:01:53.273Z</time>
      </trkpt>
      <trkpt lat="45.29125" lon="1.07426">
        <ele>189.893</ele>
        <time>2013-03-16T15:01:59.928Z</time>
      </trkpt>
      <trkpt lat="45.2913" lon="1.07414">
        <ele>189.872</ele>
        <time>2013-03-16T15:02:06.385Z</time>
      </trkpt>
      <trkpt lat="45.29134" lon="1.07402">
        <ele>189.896</ele>
        <time>2013-03-16T15:02:13.631Z</time>
      </trkpt>
      <trkpt lat="45.29137" lon="1.07388">
        <ele>189.924</ele>
        <time>2013-03-16T15:02:21.005Z</time>
      </trkpt>
      <trkpt lat="45.2914" lon="1.07375">
        <ele>189.906</ele>
        <time>2013-03-16T15:02:27.680Z</time>
      </trkpt>
      <trkpt lat="45.29141" lon="1.07362">
        <ele>189.813</ele>
        <time>2013-03-16T15:02:34.649Z</time>
      </trkpt>
      <trkpt lat="45.2914" lon="1.07349">
        <ele>189.636</ele>
        <time>2013-03-16T15:02:41.755Z</time>
      </trkpt>
      <trkpt lat="45.29138" lon="1.07336">
        <ele>188.864</ele>
        <time>2013-03-16T15:02:48.866Z</time>
      </trkpt>
      <trkpt lat="45.29139" lon="1.07322">
        <ele>187.273</ele>
        <time>2013-03-16T15:02:55.923Z</time>
      </trkpt>
      <trkpt lat="45.2914" lon="1.07308">
        <ele>185.703</ele>
        <time>2013-03-16T15:03:02.698Z</time>
      </trkpt>
      <trkpt lat="45.29141" lon="1.07293">
        <ele>184.867</ele>
        <time>2013-03-16T15:03:10.213Z</time>
      </trkpt>
      <trkpt lat="45.29141" lon="1.07278">
        <ele>184.536</ele>
        <time>2013-03-16T15:03:17.670Z</time>
      </trkpt>
      <trkpt lat="45.29141" lon="1.07265">
        <ele>184.374</ele>
        <time>2013-03-16T15:03:24.119Z</time>
      </trkpt>
      <trkpt lat="45.29141" lon="1.07251">
        <ele>184.347</ele>
        <time>2013-03-16T15:03:30.646Z</time>
      </trkpt>
      <trkpt lat="45.2914" lon="1.07237">
        <ele>184.662</ele>
        <time>2013-03-16T15:03:37.757Z</time>
      </trkpt>
      <trkpt lat="45.29139" lon="1.07222">
        <ele>185.109</ele>
        <time>2013-03-16T15:03:44.742Z</time>
      </trkpt>
      <trkpt lat="45.29139" lon="1.0721">
        <ele>185.228</ele>
        <time>2013-03-16T15:03:51.124Z</time>
      </trkpt>
      <trkpt lat="45.29139" lon="1.07196">
        <ele>184.963</ele>
        <time>2013-03-16T15:03:58.103Z</time>
      </trkpt>
      <trkpt lat="45.2914" lon="1.07182">
        <ele>184.497</ele>
        <time>2013-03-16T15:04:04.959Z</time>
      </trkpt>
      <trkpt lat="45.29141" lon="1.07169">
        <ele>183.883</ele>
        <time>2013-03-16T15:04:11.615Z</time>
      </trkpt>
      <trkpt lat="45.29137" lon="1.07155">
        <ele>183.292</ele>
        <time>2013-03-16T15:04:19.046Z</time>
      </trkpt>
      <trkpt lat="45.29133" lon="1.07143">
        <ele>182.855</ele>
        <time>2013-03-16T15:04:26.065Z</time>
      </trkpt>
      <trkpt lat="45.29127" lon="1.07132">
        <ele>182.496</ele>
        <time>2013-03-16T15:04:33.280Z</time>
      </trkpt>
      <trkpt lat="45.2912" lon="1.07124">
        <ele>182.106</ele>
        <time>2013-03-16T15:04:39.805Z</time>
      </trkpt>
      <trkpt lat="45.29112" lon="1.07116">
        <ele>181.693</ele>
        <time>2013-03-16T15:04:46.840Z</time>
      </trkpt>
      <trkpt lat="45.29103" lon="1.07108">
        <ele>181.141</ele>
        <time>2013-03-16T15:04:54.753Z</time>
      </trkpt>
      <trkpt lat="45.29094" lon="1.07102">
        <ele>180.416</ele>
        <time>2013-03-16T15:05:01.865Z</time>
      </trkpt>
      <trkpt lat="45.29085" lon="1.07095">
        <ele>179.409</ele>
        <time>2013-03-16T15:05:10.122Z</time>
      </trkpt>
      <trkpt lat="45.29076" lon="1.07088">
        <ele>178.024</ele>
        <time>2013-03-16T15:05:18.358Z</time>
      </trkpt>
      <trkpt lat="45.29076" lon="1.07088">
        <ele>176.726</ele>
        <time>2013-03-16T15:05:31.361Z</time>
      </trkpt>
      <trkpt lat="45.29067" lon="1.0707">
        <ele>175.634</ele>
        <time>2013-03-16T15:05:57.964Z</time>
      </trkpt>
      <trkpt lat="45.29058" lon="1.07062">
        <ele>174.916</ele>
        <time>2013-03-16T15:06:06.966Z</time>
      </trkpt>
      <trkpt lat="45.29048" lon="1.07054">
        <ele>174.286</ele>
        <time>2013-03-16T15:06:17.082Z</time>
      </trkpt>
      <trkpt lat="45.2904" lon="1.07048">
        <ele>174.199</ele>
        <time>2013-03-16T15:06:24.678Z</time>
      </trkpt>
      <trkpt lat="45.29031" lon="1.07042">
        <ele>174.586</ele>
        <time>2013-03-16T15:06:32.520Z</time>
      </trkpt>
      <trkpt lat="45.29022" lon="1.07036">
        <ele>175.227</ele>
        <time>2013-03-16T15:06:39.820Z</time>
      </trkpt>
      <trkpt lat="45.29013" lon="1.07028">
        <ele>175.773</ele>
        <time>2013-03-16T15:06:47.751Z</time>
      </trkpt>
      <trkpt lat="45.29004" lon="1.0702">
        <ele>176.001</ele>
        <time>2013-03-16T15:06:54.842Z</time>
      </trkpt>
      <trkpt lat="45.28997" lon="1.07012">
        <ele>176.018</ele>
        <time>2013-03-16T15:07:02.136Z</time>
      </trkpt>
      <trkpt lat="45.28989" lon="1.07004">
        <ele>175.67</ele>
        <time>2013-03-16T15:07:09.480Z</time>
      </trkpt>
      <trkpt lat="45.28979" lon="1.06993">
        <ele>175.154</ele>
        <time>2013-03-16T15:07:18.900Z</time>
      </trkpt>
      <trkpt lat="45.28973" lon="1.06983">
        <ele>174.24</ele>
        <time>2013-03-16T15:07:26.143Z</time>
      </trkpt>
      <trkpt lat="45.28965" lon="1.06975">
        <ele>172.373</ele>
        <time>2013-03-16T15:07:33.435Z</time>
      </trkpt>
      <trkpt lat="45.28958" lon="1.06963">
        <ele>170.234</ele>
        <time>2013-03-16T15:07:41.225Z</time>
      </trkpt>
      <trkpt lat="45.28952" lon="1.06953">
        <ele>168.87</ele>
        <time>2013-03-16T15:07:47.891Z</time>
      </trkpt>
      <trkpt lat="45.28945" lon="1.06942">
        <ele>168.215</ele>
        <time>2013-03-16T15:07:55.647Z</time>
      </trkpt>
      <trkpt lat="45.28938" lon="1.06932">
        <ele>168.084</ele>
        <time>2013-03-16T15:08:03.035Z</time>
      </trkpt>
      <trkpt lat="45.28931" lon="1.06923">
        <ele>168.238</ele>
        <time>2013-03-16T15:08:09.948Z</time>
      </trkpt>
      <trkpt lat="45.28926" lon="1.06912">
        <ele>168.426</ele>
        <time>2013-03-16T15:08:17.294Z</time>
      </trkpt>
      <trkpt lat="45.2892" lon="1.06901">
        <ele>168.523</ele>
        <time>2013-03-16T15:08:23.944Z</time>
      </trkpt>
      <trkpt lat="45.28914" lon="1.0689">
        <ele>168.543</ele>
        <time>2013-03-16T15:08:31.629Z</time>
      </trkpt>
      <trkpt lat="45.28907" lon="1.0688">
        <ele>168.97</ele>
        <time>2013-03-16T15:08:38.901Z</time>
      </trkpt>
      <trkpt lat="45.28901" lon="1.06869">
        <ele>170.247</ele>
        <time>2013-03-16T15:08:45.789Z</time>
      </trkpt>
      <trkpt lat="45.28893" lon="1.06861">
        <ele>171.794</ele>
        <time>2013-03-16T15:08:53.209Z</time>
      </trkpt>
      <trkpt lat="45.28885" lon="1.06852">
        <ele>172.594</ele>
        <time>2013-03-16T15:09:00.328Z</time>
      </trkpt>
      <trkpt lat="45.28878" lon="1.06844">
        <ele>172.486</ele>
        <time>2013-03-16T15:09:06.992Z</time>
      </trkpt>
      <trkpt lat="45.2887" lon="1.06837">
        <ele>171.705</ele>
        <time>2013-03-16T15:09:13.615Z</time>
      </trkpt>
      <trkpt lat="45.28861" lon="1.06831">
        <ele>170.464</ele>
        <time>2013-03-16T15:09:20.662Z</time>
      </trkpt>
      <trkpt lat="45.28852" lon="1.06824">
        <ele>169.284</ele>
        <time>2013-03-16T15:09:28.016Z</time>
      </trkpt>
      <trkpt lat="45.28843" lon="1.06818">
        <ele>168.571</ele>
        <time>2013-03-16T15:09:35.076Z</time>
      </trkpt>
      <trkpt lat="45.28834" lon="1.06811">
        <ele>168.182</ele>
        <time>2013-03-16T15:09:41.778Z</time>
      </trkpt>
      <trkpt lat="45.28826" lon="1.06806">
        <ele>167.99</ele>
        <time>2013-03-16T15:09:48.023Z</time>
      </trkpt>
      <trkpt lat="45.28816" lon="1.06799">
        <ele>168.655</ele>
        <time>2013-03-16T15:09:55.497Z</time>
      </trkpt>
      <trkpt lat="45.28808" lon="1.06791">
        <ele>170.502</ele>
        <time>2013-03-16T15:10:02.697Z</time>
      </trkpt>
      <trkpt lat="45.288" lon="1.06784">
        <ele>172.399</ele>
        <time>2013-03-16T15:10:09.482Z</time>
      </trkpt>
      <trkpt lat="45.2879" lon="1.06778">
        <ele>172.973</ele>
        <time>2013-03-16T15:10:16.852Z</time>
      </trkpt>
      <trkpt lat="45.28782" lon="1.06771">
        <ele>172.26</ele>
        <time>2013-03-16T15:10:23.743Z</time>
      </trkpt>
      <trkpt lat="45.28773" lon="1.06765">
        <ele>171.233</ele>
        <time>2013-03-16T15:10:30.539Z</time>
      </trkpt>
      <trkpt lat="45.28764" lon="1.06759">
        <ele>170.615</ele>
        <time>2013-03-16T15:10:38.030Z</time>
      </trkpt>
      <trkpt lat="45.28756" lon="1.06753">
        <ele>170.32</ele>
        <time>2013-03-16T15:10:44.977Z</time>
      </trkpt>
      <trkpt lat="45.28747" lon="1.06746">
        <ele>170.172</ele>
        <time>2013-03-16T15:10:52.569Z</time>
      </trkpt>
      <trkpt lat="45.28738" lon="1.06741">
        <ele>170.116</ele>
        <time>2013-03-16T15:10:59.875Z</time>
      </trkpt>
      <trkpt lat="45.28729" lon="1.06735">
        <ele>170.071</ele>
        <time>2013-03-16T15:11:08.264Z</time>
      </trkpt>
      <trkpt lat="45.28721" lon="1.06726">
        <ele>169.969</ele>
        <time>2013-03-16T15:11:16.069Z</time>
      </trkpt>
      <trkpt lat="45.28712" lon="1.06719">
        <ele>169.805</ele>
        <time>2013-03-16T15:11:23.634Z</time>
      </trkpt>
      <trkpt lat="45.28703" lon="1.06711">
        <ele>169.579</ele>
        <time>2013-03-16T15:11:32.104Z</time>
      </trkpt>
      <trkpt lat="45.28695" lon="1.06705">
        <ele>169.217</ele>
        <time>2013-03-16T15:11:39.194Z</time>
      </trkpt>
      <trkpt lat="45.28686" lon="1.06701">
        <ele>168.728</ele>
        <time>2013-03-16T15:11:46.479Z</time>
      </trkpt>
      <trkpt lat="45.28678" lon="1.06694">
        <ele>168.274</ele>
        <time>2013-03-16T15:11:53.943Z</time>
      </trkpt>
      <trkpt lat="45.28669" lon="1.0669">
        <ele>168.001</ele>
        <time>2013-03-16T15:12:01.110Z</time>
      </trkpt>
      <trkpt lat="45.28659" lon="1.06688">
        <ele>167.868</ele>
        <time>2013-03-16T15:12:09.458Z</time>
      </trkpt>
      <trkpt lat="45.2865" lon="1.06683">
        <ele>167.585</ele>
        <time>2013-03-16T15:12:17.360Z</time>
      </trkpt>
      <trkpt lat="45.28641" lon="1.06675">
        <ele>166.949</ele>
        <time>2013-03-16T15:12:27.049Z</time>
      </trkpt>
      <trkpt lat="45.28634" lon="1.06661">
        <ele>166.255</ele>
        <time>2013-03-16T15:12:36.082Z</time>
      </trkpt>
      <trkpt lat="45.28622" lon="1.06637">
        <ele>166.12</ele>
        <time>2013-03-16T15:12:49.273Z</time>
      </trkpt>
      <trkpt lat="45.28614" lon="1.06624">
        <ele>166.785</ele>
        <time>2013-03-16T15:12:56.940Z</time>
      </trkpt>
      <trkpt lat="45.28606" lon="1.06618">
        <ele>168.7</ele>
        <time>2013-03-16T15:13:02.457Z</time>
      </trkpt>
      <trkpt lat="45.28596" lon="1.06613">
        <ele>172.043</ele>
        <time>2013-03-16T15:13:08.699Z</time>
      </trkpt>
      <trkpt lat="45.28587" lon="1.06606">
        <ele>175.416</ele>
        <time>2013-03-16T15:13:15.017Z</time>
      </trkpt>
      <trkpt lat="45.28578" lon="1.06598">
        <ele>177.247</ele>
        <time>2013-03-16T15:13:21.217Z</time>
      </trkpt>
      <trkpt lat="45.28569" lon="1.06593">
        <ele>177.434</ele>
        <time>2013-03-16T15:13:27.494Z</time>
      </trkpt>
      <trkpt lat="45.2856" lon="1.06587">
        <ele>176.609</ele>
        <time>2013-03-16T15:13:33.763Z</time>
      </trkpt>
      <trkpt lat="45.28552" lon="1.06578">
        <ele>175.672</ele>
        <time>2013-03-16T15:13:40.932Z</time>
      </trkpt>
      <trkpt lat="45.28545" lon="1.06568">
        <ele>175.202</ele>
        <time>2013-03-16T15:13:48.739Z</time>
      </trkpt>
      <trkpt lat="45.28537" lon="1.0656">
        <ele>175.15</ele>
        <time>2013-03-16T15:13:56.578Z</time>
      </trkpt>
      <trkpt lat="45.28528" lon="1.06553">
        <ele>174.999</ele>
        <time>2013-03-16T15:14:04.289Z</time>
      </trkpt>
      <trkpt lat="45.28519" lon="1.06549">
        <ele>174.7</ele>
        <time>2013-03-16T15:14:11.836Z</time>
      </trkpt>
      <trkpt lat="45.28509" lon="1.06548">
        <ele>175.299</ele>
        <time>2013-03-16T15:14:18.649Z</time>
      </trkpt>
      <trkpt lat="45.28499" lon="1.0655">
        <ele>177.188</ele>
        <time>2013-03-16T15:14:26.502Z</time>
      </trkpt>
      <trkpt lat="45.28488" lon="1.06556">
        <ele>179.123</ele>
        <time>2013-03-16T15:14:35.460Z</time>
      </trkpt>
      <trkpt lat="45.28478" lon="1.06561">
        <ele>180.074</ele>
        <time>2013-03-16T15:14:43.362Z</time>
      </trkpt>
      <trkpt lat="45.28478" lon="1.06561">
        <ele>180.19</ele>
        <time>2013-03-16T15:14:52.360Z</time>
      </trkpt>
      <trkpt lat="45.28467" lon="1.06562">
        <ele>179.877</ele>
        <time>2013-03-16T15:15:02.325Z</time>
      </trkpt>
      <trkpt lat="45.28458" lon="1.06562">
        <ele>179.831</ele>
        <time>2013-03-16T15:15:09.066Z</time>
      </trkpt>
      <trkpt lat="45.28449" lon="1.06561">
        <ele>179.837</ele>
        <time>2013-03-16T15:15:15.896Z</time>
      </trkpt>
      <trkpt lat="45.28439" lon="1.06562">
        <ele>179.87</ele>
        <time>2013-03-16T15:15:22.333Z</time>
      </trkpt>
      <trkpt lat="45.2843" lon="1.06561">
        <ele>179.924</ele>
        <time>2013-03-16T15:15:28.832Z</time>
      </trkpt>
      <trkpt lat="45.28421" lon="1.06557">
        <ele>179.97</ele>
        <time>2013-03-16T15:15:35.021Z</time>
      </trkpt>
      <trkpt lat="45.28412" lon="1.06556">
        <ele>180.1</ele>
        <time>2013-03-16T15:15:41.375Z</time>
      </trkpt>
      <trkpt lat="45.28403" lon="1.06553">
        <ele>180.388</ele>
        <time>2013-03-16T15:15:48.096Z</time>
      </trkpt>
      <trkpt lat="45.28393" lon="1.0655">
        <ele>180.678</ele>
        <time>2013-03-16T15:15:55.284Z</time>
      </trkpt>
      <trkpt lat="45.28383" lon="1.06549">
        <ele>180.814</ele>
        <time>2013-03-16T15:16:02.179Z</time>
      </trkpt>
      <trkpt lat="45.28374" lon="1.06548">
        <ele>180.912</ele>
        <time>2013-03-16T15:16:08.891Z</time>
      </trkpt>
      <trkpt lat="45.28365" lon="1.06545">
        <ele>180.713</ele>
        <time>2013-03-16T15:16:16.035Z</time>
      </trkpt>
      <trkpt lat="45.28355" lon="1.06544">
        <ele>179.852</ele>
        <time>2013-03-16T15:16:23.942Z</time>
      </trkpt>
      <trkpt lat="45.28346" lon="1.0654">
        <ele>178.12</ele>
        <time>2013-03-16T15:16:31.050Z</time>
      </trkpt>
      <trkpt lat="45.28336" lon="1.06541">
        <ele>175.792</ele>
        <time>2013-03-16T15:16:38.582Z</time>
      </trkpt>
      <trkpt lat="45.28326" lon="1.0654">
        <ele>174.024</ele>
        <time>2013-03-16T15:16:45.807Z</time>
      </trkpt>
      <trkpt lat="45.28316" lon="1.06539">
        <ele>173.619</ele>
        <time>2013-03-16T15:16:53.164Z</time>
      </trkpt>
      <trkpt lat="45.28306" lon="1.06538">
        <ele>173.96</ele>
        <time>2013-03-16T15:17:00.154Z</time>
      </trkpt>
      <trkpt lat="45.28297" lon="1.06539">
        <ele>174.332</ele>
        <time>2013-03-16T15:17:06.725Z</time>
      </trkpt>
      <trkpt lat="45.28286" lon="1.06539">
        <ele>174.956</ele>
        <time>2013-03-16T15:17:14.113Z</time>
      </trkpt>
      <trkpt lat="45.28276" lon="1.06538">
        <ele>176.233</ele>
        <time>2013-03-16T15:17:21.267Z</time>
      </trkpt>
      <trkpt lat="45.28263" lon="1.06539">
        <ele>177.703</ele>
        <time>2013-03-16T15:17:30.541Z</time>
      </trkpt>
      <trkpt lat="45.28254" lon="1.06538">
        <ele>178.804</ele>
        <time>2013-03-16T15:17:37.380Z</time>
      </trkpt>
      <trkpt lat="45.28244" lon="1.0654">
        <ele>179.396</ele>
        <time>2013-03-16T15:17:44.411Z</time>
      </trkpt>
      <trkpt lat="45.28236" lon="1.06543">
        <ele>179.344</ele>
        <time>2013-03-16T15:17:51.359Z</time>
      </trkpt>
      <trkpt lat="45.28226" lon="1.06542">
        <ele>178.945</ele>
        <time>2013-03-16T15:17:57.919Z</time>
      </trkpt>
      <trkpt lat="45.28216" lon="1.06538">
        <ele>178.72</ele>
        <time>2013-03-16T15:18:04.912Z</time>
      </trkpt>
      <trkpt lat="45.2821" lon="1.0655">
        <ele>178.951</ele>
        <time>2013-03-16T15:18:11.749Z</time>
      </trkpt>
      <trkpt lat="45.28206" lon="1.06561">
        <ele>179.587</ele>
        <time>2013-03-16T15:18:18.031Z</time>
      </trkpt>
      <trkpt lat="45.28201" lon="1.06575">
        <ele>180.214</ele>
        <time>2013-03-16T15:18:25.579Z</time>
      </trkpt>
      <trkpt lat="45.28196" lon="1.06586">
        <ele>180.683</ele>
        <time>2013-03-16T15:18:32.038Z</time>
      </trkpt>
      <trkpt lat="45.28189" lon="1.06594">
        <ele>181.266</ele>
        <time>2013-03-16T15:18:38.642Z</time>
      </trkpt>
      <trkpt lat="45.28183" lon="1.06606">
        <ele>182.18</ele>
        <time>2013-03-16T15:18:45.729Z</time>
      </trkpt>
      <trkpt lat="45.28175" lon="1.06614">
        <ele>183.311</ele>
        <time>2013-03-16T15:18:53.350Z</time>
      </trkpt>
      <trkpt lat="45.28168" lon="1.06624">
        <ele>184.187</ele>
        <time>2013-03-16T15:19:00.920Z</time>
      </trkpt>
      <trkpt lat="45.28162" lon="1.06637">
        <ele>184.523</ele>
        <time>2013-03-16T15:19:09.190Z</time>
      </trkpt>
      <trkpt lat="45.28155" lon="1.06647">
        <ele>184.295</ele>
        <time>2013-03-16T15:19:15.810Z</time>
      </trkpt>
      <trkpt lat="45.28149" lon="1.06659">
        <ele>183.552</ele>
        <time>2013-03-16T15:19:22.362Z</time>
      </trkpt>
      <trkpt lat="45.28149" lon="1.06659">
        <ele>182.744</ele>
        <time>2013-03-16T15:19:32.363Z</time>
      </trkpt>
      <trkpt lat="45.28142" lon="1.06671">
        <ele>182.204</ele>
        <time>2013-03-16T15:19:43.822Z</time>
      </trkpt>
      <trkpt lat="45.28135" lon="1.06683">
        <ele>181.796</ele>
        <time>2013-03-16T15:19:51.591Z</time>
      </trkpt>
      <trkpt lat="45.2813" lon="1.06694">
        <ele>180.67</ele>
        <time>2013-03-16T15:19:58.540Z</time>
      </trkpt>
      <trkpt lat="45.28123" lon="1.06704">
        <ele>179.94</ele>
        <time>2013-03-16T15:20:05.523Z</time>
      </trkpt>
      <trkpt lat="45.28117" lon="1.06714">
        <ele>180.585</ele>
        <time>2013-03-16T15:20:12.352Z</time>
      </trkpt>
      <trkpt lat="45.28108" lon="1.06721">
        <ele>181.782</ele>
        <time>2013-03-16T15:20:19.453Z</time>
      </trkpt>
      <trkpt lat="45.28099" lon="1.06724">
        <ele>181.935</ele>
        <time>2013-03-16T15:20:26.816Z</time>
      </trkpt>
      <trkpt lat="45.2809" lon="1.0673">
        <ele>180.802</ele>
        <time>2013-03-16T15:20:33.764Z</time>
      </trkpt>
      <trkpt lat="45.28082" lon="1.06734">
        <ele>179.657</ele>
        <time>2013-03-16T15:20:40.598Z</time>
      </trkpt>
      <trkpt lat="45.28073" lon="1.06738">
        <ele>179.302</ele>
        <time>2013-03-16T15:20:47.389Z</time>
      </trkpt>
      <trkpt lat="45.28063" lon="1.06741">
        <ele>178.982</ele>
        <time>2013-03-16T15:20:54.699Z</time>
      </trkpt>
      <trkpt lat="45.28054" lon="1.06745">
        <ele>178.14</ele>
        <time>2013-03-16T15:21:01.813Z</time>
      </trkpt>
      <trkpt lat="45.28044" lon="1.06752">
        <ele>177.219</ele>
        <time>2013-03-16T15:21:09.057Z</time>
      </trkpt>
      <trkpt lat="45.28037" lon="1.0676">
        <ele>177.145</ele>
        <time>2013-03-16T15:21:15.792Z</time>
      </trkpt>
      <trkpt lat="45.28027" lon="1.06766">
        <ele>178.328</ele>
        <time>2013-03-16T15:21:23.106Z</time>
      </trkpt>
      <trkpt lat="45.28018" lon="1.06769">
        <ele>180.491</ele>
        <time>2013-03-16T15:21:29.496Z</time>
      </trkpt>
      <trkpt lat="45.28009" lon="1.06772">
        <ele>182.739</ele>
        <time>2013-03-16T15:21:36.438Z</time>
      </trkpt>
      <trkpt lat="45.27999" lon="1.06778">
        <ele>184.181</ele>
        <time>2013-03-16T15:21:43.733Z</time>
      </trkpt>
      <trkpt lat="45.27989" lon="1.06777">
        <ele>184.625</ele>
        <time>2013-03-16T15:21:50.380Z</time>
      </trkpt>
      <trkpt lat="45.2798" lon="1.06776">
        <ele>184.479</ele>
        <time>2013-03-16T15:21:56.653Z</time>
      </trkpt>
      <trkpt lat="45.2797" lon="1.06775">
        <ele>183.711</ele>
        <time>2013-03-16T15:22:03.862Z</time>
      </trkpt>
      <trkpt lat="45.2796" lon="1.06774">
        <ele>182.307</ele>
        <time>2013-03-16T15:22:11.616Z</time>
      </trkpt>
      <trkpt lat="45.2795" lon="1.06777">
        <ele>180.682</ele>
        <time>2013-03-16T15:22:19.225Z</time>
      </trkpt>
      <trkpt lat="45.27942" lon="1.06785">
        <ele>179.087</ele>
        <time>2013-03-16T15:22:26.581Z</time>
      </trkpt>
      <trkpt lat="45.27937" lon="1.06796">
        <ele>177.714</ele>
        <time>2013-03-16T15:22:33.504Z</time>
      </trkpt>
      <trkpt lat="45.27928" lon="1.06797">
        <ele>176.751</ele>
        <time>2013-03-16T15:22:40.351Z</time>
      </trkpt>
      <trkpt lat="45.27921" lon="1.06789">
        <ele>176.25</ele>
        <time>2013-03-16T15:22:47.380Z</time>
      </trkpt>
      <trkpt lat="45.27913" lon="1.0678">
        <ele>176.35</ele>
        <time>2013-03-16T15:22:55.719Z</time>
      </trkpt>
      <trkpt lat="45.27904" lon="1.06771">
        <ele>176.828</ele>
        <time>2013-03-16T15:23:03.537Z</time>
      </trkpt>
      <trkpt lat="45.27897" lon="1.06755">
        <ele>177.397</ele>
        <time>2013-03-16T15:23:13.425Z</time>
      </trkpt>
      <trkpt lat="45.27889" lon="1.06747">
        <ele>178.289</ele>
        <time>2013-03-16T15:23:20.853Z</time>
      </trkpt>
      <trkpt lat="45.27881" lon="1.06739">
        <ele>179.653</ele>
        <time>2013-03-16T15:23:28.734Z</time>
      </trkpt>
      <trkpt lat="45.27875" lon="1.06729">
        <ele>181.083</ele>
        <time>2013-03-16T15:23:35.891Z</time>
      </trkpt>
      <trkpt lat="45.27868" lon="1.06719">
        <ele>182.005</ele>
        <time>2013-03-16T15:23:43.271Z</time>
      </trkpt>
      <trkpt lat="45.27861" lon="1.06713">
        <ele>182.291</ele>
        <time>2013-03-16T15:23:50.596Z</time>
      </trkpt>
      <trkpt lat="45.27853" lon="1.06704">
        <ele>181.828</ele>
        <time>2013-03-16T15:23:58.440Z</time>
      </trkpt>
      <trkpt lat="45.27845" lon="1.06696">
        <ele>179.958</ele>
        <time>2013-03-16T15:24:06.433Z</time>
      </trkpt>
      <trkpt lat="45.27838" lon="1.06687">
        <ele>176.789</ele>
        <time>2013-03-16T15:24:14.255Z</time>
      </trkpt>
      <trkpt lat="45.27832" lon="1.06676">
        <ele>173.748</ele>
        <time>2013-03-16T15:24:22.841Z</time>
      </trkpt>
      <trkpt lat="45.27825" lon="1.06666">
        <ele>171.975</ele>
        <time>2013-03-16T15:24:30.719Z</time>
      </trkpt>
      <trkpt lat="45.27818" lon="1.06656">
        <ele>171.425</ele>
        <time>2013-03-16T15:24:37.595Z</time>
      </trkpt>
      <trkpt lat="45.27811" lon="1.06648">
        <ele>171.6</ele>
        <time>2013-03-16T15:24:44.281Z</time>
      </trkpt>
      <trkpt lat="45.27803" lon="1.06641">
        <ele>172.043</ele>
        <time>2013-03-16T15:24:50.922Z</time>
      </trkpt>
      <trkpt lat="45.27795" lon="1.06633">
        <ele>172.41</ele>
        <time>2013-03-16T15:24:57.929Z</time>
      </trkpt>
      <trkpt lat="45.27789" lon="1.06624">
        <ele>172.515</ele>
        <time>2013-03-16T15:25:04.725Z</time>
      </trkpt>
      <trkpt lat="45.27784" lon="1.06612">
        <ele>172.405</ele>
        <time>2013-03-16T15:25:12.027Z</time>
      </trkpt>
      <trkpt lat="45.27778" lon="1.066">
        <ele>172.247</ele>
        <time>2013-03-16T15:25:19.179Z</time>
      </trkpt>
      <trkpt lat="45.27773" lon="1.0659">
        <ele>172.159</ele>
        <time>2013-03-16T15:25:26.023Z</time>
      </trkpt>
      <trkpt lat="45.27768" lon="1.06579">
        <ele>172.138</ele>
        <time>2013-03-16T15:25:33.340Z</time>
      </trkpt>
      <trkpt lat="45.27764" lon="1.06565">
        <ele>172.147</ele>
        <time>2013-03-16T15:25:42.157Z</time>
      </trkpt>
      <trkpt lat="45.27759" lon="1.06553">
        <ele>172.869</ele>
        <time>2013-03-16T15:25:51.000Z</time>
      </trkpt>
      <trkpt lat="45.27755" lon="1.06539">
        <ele>175.615</ele>
        <time>2013-03-16T15:25:59.580Z</time>
      </trkpt>
      <trkpt lat="45.2775" lon="1.06526">
        <ele>179.899</ele>
        <time>2013-03-16T15:26:07.803Z</time>
      </trkpt>
      <trkpt lat="45.27745" lon="1.06515">
        <ele>183.376</ele>
        <time>2013-03-16T15:26:15.565Z</time>
      </trkpt>
      <trkpt lat="45.2774" lon="1.06503">
        <ele>184.971</ele>
        <time>2013-03-16T15:26:23.232Z</time>
      </trkpt>
      <trkpt lat="45.27735" lon="1.0649">
        <ele>185.529</ele>
        <time>2013-03-16T15:26:30.938Z</time>
      </trkpt>
      <trkpt lat="45.2773" lon="1.06479">
        <ele>185.952</ele>
        <time>2013-03-16T15:26:37.777Z</time>
      </trkpt>
      <trkpt lat="45.27724" lon="1.06469">
        <ele>186.53</ele>
        <time>2013-03-16T15:26:44.924Z</time>
      </trkpt>
      <trkpt lat="45.27718" lon="1.06458">
        <ele>187.134</ele>
        <time>2013-03-16T15:26:51.984Z</time>
      </trkpt>
      <trkpt lat="45.27711" lon="1.06448">
        <ele>187.511</ele>
        <time>2013-03-16T15:26:59.421Z</time>
      </trkpt>
      <trkpt lat="45.27704" lon="1.06439">
        <ele>187.799</ele>
        <time>2013-03-16T15:27:06.130Z</time>
      </trkpt>
      <trkpt lat="45.27695" lon="1.06434">
        <ele>188.296</ele>
        <time>2013-03-16T15:27:13.553Z</time>
      </trkpt>
      <trkpt lat="45.27687" lon="1.06428">
        <ele>188.589</ele>
        <time>2013-03-16T15:27:21.123Z</time>
      </trkpt>
      <trkpt lat="45.27678" lon="1.06423">
        <ele>188.187</ele>
        <time>2013-03-16T15:27:28.893Z</time>
      </trkpt>
      <trkpt lat="45.27669" lon="1.0642">
        <ele>187.346</ele>
        <time>2013-03-16T15:27:36.779Z</time>
      </trkpt>
      <trkpt lat="45.27661" lon="1.06407">
        <ele>186.341</ele>
        <time>2013-03-16T15:27:47.050Z</time>
      </trkpt>
      <trkpt lat="45.27655" lon="1.06396">
        <ele>184.606</ele>
        <time>2013-03-16T15:27:56.708Z</time>
      </trkpt>
      <trkpt lat="45.27648" lon="1.06387">
        <ele>182.071</ele>
        <time>2013-03-16T15:28:04.140Z</time>
      </trkpt>
      <trkpt lat="45.2764" lon="1.0638">
        <ele>179.959</ele>
        <time>2013-03-16T15:28:11.139Z</time>
      </trkpt>
      <trkpt lat="45.27632" lon="1.0637">
        <ele>178.775</ele>
        <time>2013-03-16T15:28:18.210Z</time>
      </trkpt>
      <trkpt lat="45.27627" lon="1.06359">
        <ele>177.616</ele>
        <time>2013-03-16T15:28:24.858Z</time>
      </trkpt>
      <trkpt lat="45.27617" lon="1.06352">
        <ele>176.242</ele>
        <time>2013-03-16T15:28:32.751Z</time>
      </trkpt>
      <trkpt lat="45.27609" lon="1.06343">
        <ele>175.539</ele>
        <time>2013-03-16T15:28:40.250Z</time>
      </trkpt>
      <trkpt lat="45.27601" lon="1.06333">
        <ele>175.642</ele>
        <time>2013-03-16T15:28:47.478Z</time>
      </trkpt>
      <trkpt lat="45.27594" lon="1.06323">
        <ele>175.546</ele>
        <time>2013-03-16T15:28:54.331Z</time>
      </trkpt>
      <trkpt lat="45.27588" lon="1.06312">
        <ele>174.906</ele>
        <time>2013-03-16T15:29:01.169Z</time>
      </trkpt>
      <trkpt lat="45.27582" lon="1.06302">
        <ele>174.307</ele>
        <time>2013-03-16T15:29:08.319Z</time>
      </trkpt>
      <trkpt lat="45.27576" lon="1.06293">
        <ele>174.031</ele>
        <time>2013-03-16T15:29:15.569Z</time>
      </trkpt>
      <trkpt lat="45.2757" lon="1.06281">
        <ele>173.816</ele>
        <time>2013-03-16T15:29:23.511Z</time>
      </trkpt>
      <trkpt lat="45.27563" lon="1.06272">
        <ele>173.401</ele>
        <time>2013-03-16T15:29:30.493Z</time>
      </trkpt>
      <trkpt lat="45.27556" lon="1.06263">
        <ele>173.15</ele>
        <time>2013-03-16T15:29:38.131Z</time>
      </trkpt>
      <trkpt lat="45.27549" lon="1.06254">
        <ele>173.411</ele>
        <time>2013-03-16T15:29:45.243Z</time>
      </trkpt>
      <trkpt lat="45.27544" lon="1.06243">
        <ele>173.858</ele>
        <time>2013-03-16T15:29:52.779Z</time>
      </trkpt>
      <trkpt lat="45.27539" lon="1.0623">
        <ele>173.895</ele>
        <time>2013-03-16T15:30:01.070Z</time>
      </trkpt>
      <trkpt lat="45.27534" lon="1.06218">
        <ele>173.324</ele>
        <time>2013-03-16T15:30:09.717Z</time>
      </trkpt>
      <trkpt lat="45.27528" lon="1.06208">
        <ele>172.582</ele>
        <time>2013-03-16T15:30:17.167Z</time>
      </trkpt>
      <trkpt lat="45.27521" lon="1.06198">
        <ele>172.154</ele>
        <time>2013-03-16T15:30:25.087Z</time>
      </trkpt>
      <trkpt lat="45.27515" lon="1.06187">
        <ele>171.793</ele>
        <time>2013-03-16T15:30:32.355Z</time>
      </trkpt>
      <trkpt lat="45.27508" lon="1.06178">
        <ele>171.192</ele>
        <time>2013-03-16T15:30:39.675Z</time>
      </trkpt>
      <trkpt lat="45.27501" lon="1.06169">
        <ele>170.555</ele>
        <time>2013-03-16T15:30:46.524Z</time>
      </trkpt>
      <trkpt lat="45.27493" lon="1.06161">
        <ele>170.199</ele>
        <time>2013-03-16T15:30:53.540Z</time>
      </trkpt>
      <trkpt lat="45.27485" lon="1.06155">
        <ele>170.105</ele>
        <time>2013-03-16T15:31:00.210Z</time>
      </trkpt>
      <trkpt lat="45.27476" lon="1.06149">
        <ele>169.886</ele>
        <time>2013-03-16T15:31:06.992Z</time>
      </trkpt>
      <trkpt lat="45.27467" lon="1.06143">
        <ele>169.314</ele>
        <time>2013-03-16T15:31:14.287Z</time>
      </trkpt>
      <trkpt lat="45.27458" lon="1.0614">
        <ele>168.644</ele>
        <time>2013-03-16T15:31:21.059Z</time>
      </trkpt>
      <trkpt lat="45.27449" lon="1.06136">
        <ele>168.178</ele>
        <time>2013-03-16T15:31:28.042Z</time>
      </trkpt>
      <trkpt lat="45.2744" lon="1.06129">
        <ele>168.069</ele>
        <time>2013-03-16T15:31:35.947Z</time>
      </trkpt>
      <trkpt lat="45.27433" lon="1.06121">
        <ele>168.211</ele>
        <time>2013-03-16T15:31:43.073Z</time>
      </trkpt>
      <trkpt lat="45.27424" lon="1.06113">
        <ele>168.313</ele>
        <time>2013-03-16T15:31:51.143Z</time>
      </trkpt>
      <trkpt lat="45.27415" lon="1.06108">
        <ele>168.306</ele>
        <time>2013-03-16T15:31:58.970Z</time>
      </trkpt>
      <trkpt lat="45.27406" lon="1.06103">
        <ele>167.798</ele>
        <time>2013-03-16T15:32:06.355Z</time>
      </trkpt>
      <trkpt lat="45.27398" lon="1.06096">
        <ele>166.616</ele>
        <time>2013-03-16T15:32:13.449Z</time>
      </trkpt>
      <trkpt lat="45.2739" lon="1.0609">
        <ele>165.461</ele>
        <time>2013-03-16T15:32:20.960Z</time>
      </trkpt>
      <trkpt lat="45.27383" lon="1.06081">
        <ele>164.847</ele>
        <time>2013-03-16T15:32:28.832Z</time>
      </trkpt>
      <trkpt lat="45.27374" lon="1.06075">
        <ele>164.048</ele>
        <time>2013-03-16T15:32:36.924Z</time>
      </trkpt>
      <trkpt lat="45.27366" lon="1.06069">
        <ele>162.568</ele>
        <time>2013-03-16T15:32:44.728Z</time>
      </trkpt>
      <trkpt lat="45.27358" lon="1.06064">
        <ele>161.065</ele>
        <time>2013-03-16T15:32:52.377Z</time>
      </trkpt>
      <trkpt lat="45.2735" lon="1.06072">
        <ele>160.248</ele>
        <time>2013-03-16T15:33:00.524Z</time>
      </trkpt>
      <trkpt lat="45.27343" lon="1.06084">
        <ele>159.967</ele>
        <time>2013-03-16T15:33:09.409Z</time>
      </trkpt>
      <trkpt lat="45.27338" lon="1.06095">
        <ele>159.651</ele>
        <time>2013-03-16T15:33:17.165Z</time>
      </trkpt>
      <trkpt lat="45.27334" lon="1.06108">
        <ele>158.528</ele>
        <time>2013-03-16T15:33:25.809Z</time>
      </trkpt>
      <trkpt lat="45.27327" lon="1.06118">
        <ele>156.621</ele>
        <time>2013-03-16T15:33:33.889Z</time>
      </trkpt>
      <trkpt lat="45.27322" lon="1.06132">
        <ele>154.923</ele>
        <time>2013-03-16T15:33:42.580Z</time>
      </trkpt>
      <trkpt lat="45.27323" lon="1.06145">
        <ele>153.829</ele>
        <time>2013-03-16T15:33:49.965Z</time>
      </trkpt>
      <trkpt lat="45.27325" lon="1.0616">
        <ele>153.243</ele>
        <time>2013-03-16T15:33:58.398Z</time>
      </trkpt>
      <trkpt lat="45.27325" lon="1.06173">
        <ele>153.065</ele>
        <time>2013-03-16T15:34:06.117Z</time>
      </trkpt>
      <trkpt lat="45.27323" lon="1.06187">
        <ele>152.725</ele>
        <time>2013-03-16T15:34:13.880Z</time>
      </trkpt>
      <trkpt lat="45.27318" lon="1.06199">
        <ele>151.833</ele>
        <time>2013-03-16T15:34:22.184Z</time>
      </trkpt>
      <trkpt lat="45.27308" lon="1.06199">
        <ele>150.598</ele>
        <time>2013-03-16T15:34:30.667Z</time>
      </trkpt>
      <trkpt lat="45.27305" lon="1.06187">
        <ele>148.99</ele>
        <time>2013-03-16T15:34:38.980Z</time>
      </trkpt>
      <trkpt lat="45.27301" lon="1.06174">
        <ele>146.933</ele>
        <time>2013-03-16T15:34:47.899Z</time>
      </trkpt>
      <trkpt lat="45.27295" lon="1.06163">
        <ele>144.655</ele>
        <time>2013-03-16T15:34:56.452Z</time>
      </trkpt>
      <trkpt lat="45.27288" lon="1.06152">
        <ele>142.757</ele>
        <time>2013-03-16T15:35:05.136Z</time>
      </trkpt>
      <trkpt lat="45.27283" lon="1.06141">
        <ele>141.74</ele>
        <time>2013-03-16T15:35:13.282Z</time>
      </trkpt>
      <trkpt lat="45.27281" lon="1.06128">
        <ele>141.484</ele>
        <time>2013-03-16T15:35:21.009Z</time>
      </trkpt>
      <trkpt lat="45.27278" lon="1.06114">
        <ele>141.556</ele>
        <time>2013-03-16T15:35:29.213Z</time>
      </trkpt>
      <trkpt lat="45.2727" lon="1.06108">
        <ele>141.709</ele>
        <time>2013-03-16T15:35:36.806Z</time>
      </trkpt>
      <trkpt lat="45.27262" lon="1.06102">
        <ele>142.011</ele>
        <time>2013-03-16T15:35:44.043Z</time>
      </trkpt>
      <trkpt lat="45.27254" lon="1.06094">
        <ele>142.523</ele>
        <time>2013-03-16T15:35:51.678Z</time>
      </trkpt>
      <trkpt lat="45.27248" lon="1.06083">
        <ele>142.704</ele>
        <time>2013-03-16T15:36:00.275Z</time>
      </trkpt>
      <trkpt lat="45.2724" lon="1.06072">
        <ele>141.933</ele>
        <time>2013-03-16T15:36:08.800Z</time>
      </trkpt>
      <trkpt lat="45.27235" lon="1.06062">
        <ele>140.54</ele>
        <time>2013-03-16T15:36:16.104Z</time>
      </trkpt>
      <trkpt lat="45.27229" lon="1.0605">
        <ele>139.352</ele>
        <time>2013-03-16T15:36:23.783Z</time>
      </trkpt>
      <trkpt lat="45.27224" lon="1.06039">
        <ele>138.631</ele>
        <time>2013-03-16T15:36:31.821Z</time>
      </trkpt>
      <trkpt lat="45.27219" lon="1.06027">
        <ele>137.909</ele>
        <time>2013-03-16T15:36:39.370Z</time>
      </trkpt>
      <trkpt lat="45.27217" lon="1.06014">
        <ele>136.942</ele>
        <time>2013-03-16T15:36:46.758Z</time>
      </trkpt>
      <trkpt lat="45.27218" lon="1.05999">
        <ele>135.987</ele>
        <time>2013-03-16T15:36:54.588Z</time>
      </trkpt>
      <trkpt lat="45.27218" lon="1.05985">
        <ele>134.82</ele>
        <time>2013-03-16T15:37:01.978Z</time>
      </trkpt>
      <trkpt lat="45.27217" lon="1.05972">
        <ele>133.16</ele>
        <time>2013-03-16T15:37:08.813Z</time>
      </trkpt>
      <trkpt lat="45.27217" lon="1.05959">
        <ele>131.624</ele>
        <time>2013-03-16T15:37:15.846Z</time>
      </trkpt>
      <trkpt lat="45.27215" lon="1.05946">
        <ele>130.837</ele>
        <time>2013-03-16T15:37:23.028Z</time>
      </trkpt>
      <trkpt lat="45.27213" lon="1.05932">
        <ele>130.668</ele>
        <time>2013-03-16T15:37:30.699Z</time>
      </trkpt>
      <trkpt lat="45.27215" lon="1.05913">
        <ele>130.654</ele>
        <time>2013-03-16T15:37:40.447Z</time>
      </trkpt>
      <trkpt lat="45.27213" lon="1.059">
        <ele>130.52</ele>
        <time>2013-03-16T15:37:47.351Z</time>
      </trkpt>
      <trkpt lat="45.27212" lon="1.05886">
        <ele>130.34</ele>
        <time>2013-03-16T15:37:54.429Z</time>
      </trkpt>
      <trkpt lat="45.27211" lon="1.05872">
        <ele>130.243</ele>
        <time>2013-03-16T15:38:01.450Z</time>
      </trkpt>
      <trkpt lat="45.27204" lon="1.05864">
        <ele>130.221</ele>
        <time>2013-03-16T15:38:08.134Z</time>
      </trkpt>
      <trkpt lat="45.27195" lon="1.05861">
        <ele>130.372</ele>
        <time>2013-03-16T15:38:14.717Z</time>
      </trkpt>
      <trkpt lat="45.27186" lon="1.05858">
        <ele>131.11</ele>
        <time>2013-03-16T15:38:21.606Z</time>
      </trkpt>
      <trkpt lat="45.27177" lon="1.05857">
        <ele>132.531</ele>
        <time>2013-03-16T15:38:28.367Z</time>
      </trkpt>
      <trkpt lat="45.27166" lon="1.05859">
        <ele>134.02</ele>
        <time>2013-03-16T15:38:35.946Z</time>
      </trkpt>
      <trkpt lat="45.27156" lon="1.05859">
        <ele>134.904</ele>
        <time>2013-03-16T15:38:43.385Z</time>
      </trkpt>
      <trkpt lat="45.27146" lon="1.05862">
        <ele>135.082</ele>
        <time>2013-03-16T15:38:50.371Z</time>
      </trkpt>
      <trkpt lat="45.27146" lon="1.05862">
        <ele>134.891</ele>
        <time>2013-03-16T15:38:57.371Z</time>
      </trkpt>
    </trkseg>
  </trk>
</gpx>